<?xml version="1.0" encoding="UTF-8" standalone="no" ?>
<gpx xmlns="http://www.topografix.com/GPX/1/1" xmlns:xsi="http://www.w3.org/2001/XMLSchema-instance" xsi:schemaLocation="http://www.topografix.com/GPX/1/1 http://www.topografix.com/GPX/1/1/gpx.xsd" version="1.1" creator="VisuGPX - https://www.visugpx.com">
  <metadata>
    <name>Lot - Marais de Bonnefont</name>
  </metadata>
  <trk>
    <name><![CDATA[Lot - Marais de Bonnefont_1]]></name>
    <extensions>
      <line xmlns="http://www.topografix.com/GPX/gpx_style/0/2">
        <color>0000FF</color>
        <width>4</width>
      </line>
    </extensions>
    <trkseg>
      <trkpt lat="44.81952" lon="1.79872">
        <ele>288.8</ele>
        <time>2026-05-25T09:09:01Z</time>
      </trkpt>
      <trkpt lat="44.81951" lon="1.79872">
        <ele>289.2</ele>
        <time>2026-05-25T09:09:05Z</time>
      </trkpt>
      <trkpt lat="44.81953" lon="1.79871">
        <ele>289.2</ele>
        <time>2026-05-25T09:09:06Z</time>
      </trkpt>
      <trkpt lat="44.81955" lon="1.79871">
        <ele>290</ele>
        <time>2026-05-25T09:09:14Z</time>
      </trkpt>
      <trkpt lat="44.81958" lon="1.7987">
        <ele>289.6</ele>
        <time>2026-05-25T09:09:18Z</time>
      </trkpt>
      <trkpt lat="44.81958" lon="1.79869">
        <ele>289.6</ele>
        <time>2026-05-25T09:09:19Z</time>
      </trkpt>
      <trkpt lat="44.81959" lon="1.7987">
        <ele>289.8</ele>
        <time>2026-05-25T09:09:27Z</time>
      </trkpt>
      <trkpt lat="44.81963" lon="1.79876">
        <ele>289.8</ele>
        <time>2026-05-25T09:09:30Z</time>
      </trkpt>
      <trkpt lat="44.81964" lon="1.79877">
        <ele>289.2</ele>
        <time>2026-05-25T09:09:38Z</time>
      </trkpt>
      <trkpt lat="44.81966" lon="1.7988">
        <ele>289.8</ele>
        <time>2026-05-25T09:09:42Z</time>
      </trkpt>
      <trkpt lat="44.81968" lon="1.79881">
        <ele>289.8</ele>
        <time>2026-05-25T09:09:43Z</time>
      </trkpt>
      <trkpt lat="44.81972" lon="1.79881">
        <ele>289.8</ele>
        <time>2026-05-25T09:09:45Z</time>
      </trkpt>
      <trkpt lat="44.81973" lon="1.79882">
        <ele>289.8</ele>
        <time>2026-05-25T09:09:46Z</time>
      </trkpt>
      <trkpt lat="44.81973" lon="1.79883">
        <ele>289.8</ele>
        <time>2026-05-25T09:09:47Z</time>
      </trkpt>
      <trkpt lat="44.81977" lon="1.79882">
        <ele>289.2</ele>
        <time>2026-05-25T09:09:48Z</time>
      </trkpt>
      <trkpt lat="44.81978" lon="1.79882">
        <ele>289.4</ele>
        <time>2026-05-25T09:09:49Z</time>
      </trkpt>
      <trkpt lat="44.8198" lon="1.79878">
        <ele>289.4</ele>
        <time>2026-05-25T09:09:51Z</time>
      </trkpt>
      <trkpt lat="44.81978" lon="1.79878">
        <ele>289.4</ele>
        <time>2026-05-25T09:09:59Z</time>
      </trkpt>
      <trkpt lat="44.81982" lon="1.7988">
        <ele>289.6</ele>
        <time>2026-05-25T09:10:07Z</time>
      </trkpt>
      <trkpt lat="44.81983" lon="1.7988">
        <ele>289.6</ele>
        <time>2026-05-25T09:10:08Z</time>
      </trkpt>
      <trkpt lat="44.81987" lon="1.79876">
        <ele>290.2</ele>
        <time>2026-05-25T09:10:13Z</time>
      </trkpt>
      <trkpt lat="44.81987" lon="1.79874">
        <ele>290.2</ele>
        <time>2026-05-25T09:10:14Z</time>
      </trkpt>
      <trkpt lat="44.81989" lon="1.79872">
        <ele>289.8</ele>
        <time>2026-05-25T09:10:16Z</time>
      </trkpt>
      <trkpt lat="44.81989" lon="1.79871">
        <ele>289.4</ele>
        <time>2026-05-25T09:10:17Z</time>
      </trkpt>
      <trkpt lat="44.8199" lon="1.7987">
        <ele>289.4</ele>
        <time>2026-05-25T09:10:18Z</time>
      </trkpt>
      <trkpt lat="44.8199" lon="1.79869">
        <ele>289.4</ele>
        <time>2026-05-25T09:10:19Z</time>
      </trkpt>
      <trkpt lat="44.81991" lon="1.79868">
        <ele>289.8</ele>
        <time>2026-05-25T09:10:20Z</time>
      </trkpt>
      <trkpt lat="44.81991" lon="1.79866">
        <ele>289.8</ele>
        <time>2026-05-25T09:10:22Z</time>
      </trkpt>
      <trkpt lat="44.81992" lon="1.79864">
        <ele>289.8</ele>
        <time>2026-05-25T09:10:23Z</time>
      </trkpt>
      <trkpt lat="44.81992" lon="1.79863">
        <ele>290.2</ele>
        <time>2026-05-25T09:10:24Z</time>
      </trkpt>
      <trkpt lat="44.81993" lon="1.79862">
        <ele>289.8</ele>
        <time>2026-05-25T09:10:25Z</time>
      </trkpt>
      <trkpt lat="44.81993" lon="1.79861">
        <ele>289.8</ele>
        <time>2026-05-25T09:10:26Z</time>
      </trkpt>
      <trkpt lat="44.81994" lon="1.79859">
        <ele>289.8</ele>
        <time>2026-05-25T09:10:27Z</time>
      </trkpt>
      <trkpt lat="44.81993" lon="1.79858">
        <ele>289.8</ele>
        <time>2026-05-25T09:10:28Z</time>
      </trkpt>
      <trkpt lat="44.81994" lon="1.79856">
        <ele>289.8</ele>
        <time>2026-05-25T09:10:29Z</time>
      </trkpt>
      <trkpt lat="44.81995" lon="1.79855">
        <ele>289.8</ele>
        <time>2026-05-25T09:10:30Z</time>
      </trkpt>
      <trkpt lat="44.81995" lon="1.79853">
        <ele>289.8</ele>
        <time>2026-05-25T09:10:32Z</time>
      </trkpt>
      <trkpt lat="44.81993" lon="1.79851">
        <ele>288.6</ele>
        <time>2026-05-25T09:10:34Z</time>
      </trkpt>
      <trkpt lat="44.81993" lon="1.79847">
        <ele>289.8</ele>
        <time>2026-05-25T09:10:42Z</time>
      </trkpt>
      <trkpt lat="44.81992" lon="1.79843">
        <ele>290</ele>
        <time>2026-05-25T09:10:49Z</time>
      </trkpt>
      <trkpt lat="44.81993" lon="1.79842">
        <ele>290</ele>
        <time>2026-05-25T09:10:50Z</time>
      </trkpt>
      <trkpt lat="44.81992" lon="1.79842">
        <ele>290</ele>
        <time>2026-05-25T09:10:51Z</time>
      </trkpt>
      <trkpt lat="44.81993" lon="1.7984">
        <ele>290</ele>
        <time>2026-05-25T09:10:52Z</time>
      </trkpt>
      <trkpt lat="44.81993" lon="1.79837">
        <ele>289.4</ele>
        <time>2026-05-25T09:10:56Z</time>
      </trkpt>
      <trkpt lat="44.81994" lon="1.79836">
        <ele>289.4</ele>
        <time>2026-05-25T09:10:58Z</time>
      </trkpt>
      <trkpt lat="44.81995" lon="1.79836">
        <ele>289.4</ele>
        <time>2026-05-25T09:11:00Z</time>
      </trkpt>
      <trkpt lat="44.81996" lon="1.79835">
        <ele>289.6</ele>
        <time>2026-05-25T09:12:04Z</time>
      </trkpt>
      <trkpt lat="44.81994" lon="1.79831">
        <ele>289.4</ele>
        <time>2026-05-25T09:12:16Z</time>
      </trkpt>
      <trkpt lat="44.81994" lon="1.79825">
        <ele>289.6</ele>
        <time>2026-05-25T09:12:22Z</time>
      </trkpt>
      <trkpt lat="44.81995" lon="1.79824">
        <ele>289.6</ele>
        <time>2026-05-25T09:12:23Z</time>
      </trkpt>
      <trkpt lat="44.81995" lon="1.7982">
        <ele>288.6</ele>
        <time>2026-05-25T09:12:26Z</time>
      </trkpt>
      <trkpt lat="44.81996" lon="1.79819">
        <ele>288.6</ele>
        <time>2026-05-25T09:12:27Z</time>
      </trkpt>
      <trkpt lat="44.81996" lon="1.79818">
        <ele>288.6</ele>
        <time>2026-05-25T09:12:29Z</time>
      </trkpt>
      <trkpt lat="44.81997" lon="1.79817">
        <ele>288.6</ele>
        <time>2026-05-25T09:12:30Z</time>
      </trkpt>
      <trkpt lat="44.81997" lon="1.79816">
        <ele>288.6</ele>
        <time>2026-05-25T09:12:31Z</time>
      </trkpt>
      <trkpt lat="44.81998" lon="1.79815">
        <ele>288.6</ele>
        <time>2026-05-25T09:12:32Z</time>
      </trkpt>
      <trkpt lat="44.81998" lon="1.79814">
        <ele>288.2</ele>
        <time>2026-05-25T09:12:33Z</time>
      </trkpt>
      <trkpt lat="44.82" lon="1.79812">
        <ele>288.2</ele>
        <time>2026-05-25T09:12:35Z</time>
      </trkpt>
      <trkpt lat="44.82001" lon="1.7981">
        <ele>286.6</ele>
        <time>2026-05-25T09:12:37Z</time>
      </trkpt>
      <trkpt lat="44.82004" lon="1.79807">
        <ele>286.6</ele>
        <time>2026-05-25T09:12:40Z</time>
      </trkpt>
      <trkpt lat="44.82004" lon="1.79806">
        <ele>286.6</ele>
        <time>2026-05-25T09:12:41Z</time>
      </trkpt>
      <trkpt lat="44.82006" lon="1.79806">
        <ele>286.6</ele>
        <time>2026-05-25T09:12:43Z</time>
      </trkpt>
      <trkpt lat="44.82006" lon="1.79805">
        <ele>286.6</ele>
        <time>2026-05-25T09:12:44Z</time>
      </trkpt>
      <trkpt lat="44.82008" lon="1.79805">
        <ele>287</ele>
        <time>2026-05-25T09:12:45Z</time>
      </trkpt>
      <trkpt lat="44.82008" lon="1.79804">
        <ele>287</ele>
        <time>2026-05-25T09:12:46Z</time>
      </trkpt>
      <trkpt lat="44.82009" lon="1.79804">
        <ele>287</ele>
        <time>2026-05-25T09:12:47Z</time>
      </trkpt>
      <trkpt lat="44.82011" lon="1.79802">
        <ele>285.6</ele>
        <time>2026-05-25T09:13:21Z</time>
      </trkpt>
      <trkpt lat="44.82019" lon="1.79802">
        <ele>286.2</ele>
        <time>2026-05-25T09:13:27Z</time>
      </trkpt>
      <trkpt lat="44.8202" lon="1.79801">
        <ele>285.2</ele>
        <time>2026-05-25T09:13:28Z</time>
      </trkpt>
      <trkpt lat="44.82021" lon="1.79801">
        <ele>285.6</ele>
        <time>2026-05-25T09:13:29Z</time>
      </trkpt>
      <trkpt lat="44.82022" lon="1.798">
        <ele>285.6</ele>
        <time>2026-05-25T09:13:30Z</time>
      </trkpt>
      <trkpt lat="44.82023" lon="1.798">
        <ele>285.6</ele>
        <time>2026-05-25T09:13:31Z</time>
      </trkpt>
      <trkpt lat="44.82024" lon="1.79799">
        <ele>285.4</ele>
        <time>2026-05-25T09:13:32Z</time>
      </trkpt>
      <trkpt lat="44.82025" lon="1.79799">
        <ele>285.2</ele>
        <time>2026-05-25T09:13:34Z</time>
      </trkpt>
      <trkpt lat="44.82029" lon="1.79795">
        <ele>284</ele>
        <time>2026-05-25T09:13:39Z</time>
      </trkpt>
      <trkpt lat="44.82029" lon="1.79794">
        <ele>284</ele>
        <time>2026-05-25T09:13:40Z</time>
      </trkpt>
      <trkpt lat="44.8203" lon="1.79793">
        <ele>283.6</ele>
        <time>2026-05-25T09:13:42Z</time>
      </trkpt>
      <trkpt lat="44.82031" lon="1.79791">
        <ele>283.6</ele>
        <time>2026-05-25T09:13:44Z</time>
      </trkpt>
      <trkpt lat="44.82032" lon="1.7979">
        <ele>282.4</ele>
        <time>2026-05-25T09:13:45Z</time>
      </trkpt>
      <trkpt lat="44.82032" lon="1.79788">
        <ele>282.4</ele>
        <time>2026-05-25T09:13:47Z</time>
      </trkpt>
      <trkpt lat="44.82033" lon="1.79787">
        <ele>282.4</ele>
        <time>2026-05-25T09:13:48Z</time>
      </trkpt>
      <trkpt lat="44.82033" lon="1.79784">
        <ele>282.6</ele>
        <time>2026-05-25T09:13:51Z</time>
      </trkpt>
      <trkpt lat="44.82032" lon="1.79783">
        <ele>281.6</ele>
        <time>2026-05-25T09:13:52Z</time>
      </trkpt>
      <trkpt lat="44.82032" lon="1.79782">
        <ele>279.4</ele>
        <time>2026-05-25T09:13:53Z</time>
      </trkpt>
      <trkpt lat="44.82031" lon="1.79782">
        <ele>279.4</ele>
        <time>2026-05-25T09:13:54Z</time>
      </trkpt>
      <trkpt lat="44.82031" lon="1.79779">
        <ele>280.4</ele>
        <time>2026-05-25T09:13:56Z</time>
      </trkpt>
      <trkpt lat="44.82029" lon="1.79777">
        <ele>282.2</ele>
        <time>2026-05-25T09:13:58Z</time>
      </trkpt>
      <trkpt lat="44.82029" lon="1.79776">
        <ele>282.2</ele>
        <time>2026-05-25T09:13:59Z</time>
      </trkpt>
      <trkpt lat="44.82028" lon="1.79775">
        <ele>281.2</ele>
        <time>2026-05-25T09:14:00Z</time>
      </trkpt>
      <trkpt lat="44.82028" lon="1.79773">
        <ele>280</ele>
        <time>2026-05-25T09:14:01Z</time>
      </trkpt>
      <trkpt lat="44.82027" lon="1.79773">
        <ele>280</ele>
        <time>2026-05-25T09:14:02Z</time>
      </trkpt>
      <trkpt lat="44.82027" lon="1.79772">
        <ele>280</ele>
        <time>2026-05-25T09:14:03Z</time>
      </trkpt>
      <trkpt lat="44.82026" lon="1.79771">
        <ele>280</ele>
        <time>2026-05-25T09:14:04Z</time>
      </trkpt>
      <trkpt lat="44.82026" lon="1.79764">
        <ele>279</ele>
        <time>2026-05-25T09:14:11Z</time>
      </trkpt>
      <trkpt lat="44.82025" lon="1.79763">
        <ele>278.6</ele>
        <time>2026-05-25T09:14:12Z</time>
      </trkpt>
      <trkpt lat="44.82025" lon="1.79759">
        <ele>278</ele>
        <time>2026-05-25T09:14:18Z</time>
      </trkpt>
      <trkpt lat="44.82026" lon="1.79758">
        <ele>277</ele>
        <time>2026-05-25T09:14:20Z</time>
      </trkpt>
      <trkpt lat="44.82026" lon="1.79756">
        <ele>275.8</ele>
        <time>2026-05-25T09:14:22Z</time>
      </trkpt>
      <trkpt lat="44.82027" lon="1.79754">
        <ele>275.8</ele>
        <time>2026-05-25T09:14:23Z</time>
      </trkpt>
      <trkpt lat="44.82027" lon="1.79751">
        <ele>276.2</ele>
        <time>2026-05-25T09:14:27Z</time>
      </trkpt>
      <trkpt lat="44.82028" lon="1.7975">
        <ele>276.2</ele>
        <time>2026-05-25T09:14:28Z</time>
      </trkpt>
      <trkpt lat="44.82028" lon="1.79748">
        <ele>277</ele>
        <time>2026-05-25T09:14:30Z</time>
      </trkpt>
      <trkpt lat="44.82029" lon="1.79747">
        <ele>277</ele>
        <time>2026-05-25T09:14:31Z</time>
      </trkpt>
      <trkpt lat="44.82029" lon="1.79745">
        <ele>276.4</ele>
        <time>2026-05-25T09:14:32Z</time>
      </trkpt>
      <trkpt lat="44.82028" lon="1.79745">
        <ele>276.2</ele>
        <time>2026-05-25T09:14:33Z</time>
      </trkpt>
      <trkpt lat="44.82029" lon="1.79744">
        <ele>276.2</ele>
        <time>2026-05-25T09:14:34Z</time>
      </trkpt>
      <trkpt lat="44.82029" lon="1.79743">
        <ele>276.2</ele>
        <time>2026-05-25T09:14:35Z</time>
      </trkpt>
      <trkpt lat="44.8203" lon="1.79742">
        <ele>276.2</ele>
        <time>2026-05-25T09:14:36Z</time>
      </trkpt>
      <trkpt lat="44.8203" lon="1.79735">
        <ele>275.2</ele>
        <time>2026-05-25T09:14:44Z</time>
      </trkpt>
      <trkpt lat="44.82031" lon="1.79729">
        <ele>275.6</ele>
        <time>2026-05-25T09:14:51Z</time>
      </trkpt>
      <trkpt lat="44.82032" lon="1.79726">
        <ele>275.4</ele>
        <time>2026-05-25T09:14:52Z</time>
      </trkpt>
      <trkpt lat="44.82033" lon="1.79724">
        <ele>274.6</ele>
        <time>2026-05-25T09:14:54Z</time>
      </trkpt>
      <trkpt lat="44.82034" lon="1.79721">
        <ele>274.6</ele>
        <time>2026-05-25T09:14:55Z</time>
      </trkpt>
      <trkpt lat="44.82036" lon="1.79717">
        <ele>275.6</ele>
        <time>2026-05-25T09:14:57Z</time>
      </trkpt>
      <trkpt lat="44.82037" lon="1.79714">
        <ele>275.6</ele>
        <time>2026-05-25T09:14:58Z</time>
      </trkpt>
      <trkpt lat="44.82037" lon="1.79713">
        <ele>275.6</ele>
        <time>2026-05-25T09:14:59Z</time>
      </trkpt>
      <trkpt lat="44.82038" lon="1.79711">
        <ele>274.8</ele>
        <time>2026-05-25T09:15:00Z</time>
      </trkpt>
      <trkpt lat="44.8204" lon="1.79705">
        <ele>275</ele>
        <time>2026-05-25T09:15:02Z</time>
      </trkpt>
      <trkpt lat="44.82039" lon="1.79705">
        <ele>274.6</ele>
        <time>2026-05-25T09:15:04Z</time>
      </trkpt>
      <trkpt lat="44.8204" lon="1.79703">
        <ele>274.2</ele>
        <time>2026-05-25T09:15:05Z</time>
      </trkpt>
      <trkpt lat="44.8204" lon="1.79702">
        <ele>274.2</ele>
        <time>2026-05-25T09:15:06Z</time>
      </trkpt>
      <trkpt lat="44.82042" lon="1.79698">
        <ele>274</ele>
        <time>2026-05-25T09:15:09Z</time>
      </trkpt>
      <trkpt lat="44.82043" lon="1.79698">
        <ele>274</ele>
        <time>2026-05-25T09:15:11Z</time>
      </trkpt>
      <trkpt lat="44.82043" lon="1.79697">
        <ele>274</ele>
        <time>2026-05-25T09:15:13Z</time>
      </trkpt>
      <trkpt lat="44.82044" lon="1.79693">
        <ele>274</ele>
        <time>2026-05-25T09:15:15Z</time>
      </trkpt>
      <trkpt lat="44.82044" lon="1.79691">
        <ele>273.4</ele>
        <time>2026-05-25T09:15:17Z</time>
      </trkpt>
      <trkpt lat="44.82052" lon="1.79683">
        <ele>273.8</ele>
        <time>2026-05-25T09:15:41Z</time>
      </trkpt>
      <trkpt lat="44.82053" lon="1.79683">
        <ele>273.8</ele>
        <time>2026-05-25T09:15:43Z</time>
      </trkpt>
      <trkpt lat="44.82054" lon="1.79682">
        <ele>273.8</ele>
        <time>2026-05-25T09:15:44Z</time>
      </trkpt>
      <trkpt lat="44.82056" lon="1.79682">
        <ele>272.8</ele>
        <time>2026-05-25T09:15:47Z</time>
      </trkpt>
      <trkpt lat="44.82056" lon="1.79681">
        <ele>272.8</ele>
        <time>2026-05-25T09:15:48Z</time>
      </trkpt>
      <trkpt lat="44.82058" lon="1.79681">
        <ele>274.4</ele>
        <time>2026-05-25T09:15:50Z</time>
      </trkpt>
      <trkpt lat="44.8206" lon="1.79679">
        <ele>272.2</ele>
        <time>2026-05-25T09:15:53Z</time>
      </trkpt>
      <trkpt lat="44.82061" lon="1.79679">
        <ele>272.2</ele>
        <time>2026-05-25T09:15:55Z</time>
      </trkpt>
      <trkpt lat="44.82062" lon="1.79678">
        <ele>272.8</ele>
        <time>2026-05-25T09:15:57Z</time>
      </trkpt>
      <trkpt lat="44.82064" lon="1.79678">
        <ele>272.8</ele>
        <time>2026-05-25T09:15:58Z</time>
      </trkpt>
      <trkpt lat="44.82068" lon="1.79674">
        <ele>270.6</ele>
        <time>2026-05-25T09:16:03Z</time>
      </trkpt>
      <trkpt lat="44.82068" lon="1.79673">
        <ele>271.6</ele>
        <time>2026-05-25T09:16:04Z</time>
      </trkpt>
      <trkpt lat="44.82071" lon="1.7967">
        <ele>271.6</ele>
        <time>2026-05-25T09:16:08Z</time>
      </trkpt>
      <trkpt lat="44.82071" lon="1.79669">
        <ele>273.4</ele>
        <time>2026-05-25T09:16:09Z</time>
      </trkpt>
      <trkpt lat="44.82071" lon="1.7967">
        <ele>273.4</ele>
        <time>2026-05-25T09:16:10Z</time>
      </trkpt>
      <trkpt lat="44.82072" lon="1.79669">
        <ele>273.4</ele>
        <time>2026-05-25T09:16:11Z</time>
      </trkpt>
      <trkpt lat="44.82072" lon="1.79667">
        <ele>271.2</ele>
        <time>2026-05-25T09:16:13Z</time>
      </trkpt>
      <trkpt lat="44.82073" lon="1.79666">
        <ele>271.2</ele>
        <time>2026-05-25T09:16:14Z</time>
      </trkpt>
      <trkpt lat="44.82073" lon="1.79664">
        <ele>271.2</ele>
        <time>2026-05-25T09:16:15Z</time>
      </trkpt>
      <trkpt lat="44.82075" lon="1.79662">
        <ele>273.6</ele>
        <time>2026-05-25T09:16:17Z</time>
      </trkpt>
      <trkpt lat="44.82075" lon="1.79661">
        <ele>273.4</ele>
        <time>2026-05-25T09:16:21Z</time>
      </trkpt>
      <trkpt lat="44.82076" lon="1.79657">
        <ele>273.4</ele>
        <time>2026-05-25T09:16:23Z</time>
      </trkpt>
      <trkpt lat="44.82077" lon="1.79655">
        <ele>272</ele>
        <time>2026-05-25T09:16:31Z</time>
      </trkpt>
      <trkpt lat="44.8208" lon="1.7965">
        <ele>272.8</ele>
        <time>2026-05-25T09:16:34Z</time>
      </trkpt>
      <trkpt lat="44.82083" lon="1.79647">
        <ele>272.6</ele>
        <time>2026-05-25T09:16:37Z</time>
      </trkpt>
      <trkpt lat="44.82083" lon="1.79646">
        <ele>273.2</ele>
        <time>2026-05-25T09:16:53Z</time>
      </trkpt>
      <trkpt lat="44.82088" lon="1.79631">
        <ele>273.2</ele>
        <time>2026-05-25T09:16:55Z</time>
      </trkpt>
      <trkpt lat="44.82089" lon="1.79631">
        <ele>273</ele>
        <time>2026-05-25T09:17:03Z</time>
      </trkpt>
      <trkpt lat="44.82091" lon="1.79635">
        <ele>273.8</ele>
        <time>2026-05-25T09:17:07Z</time>
      </trkpt>
      <trkpt lat="44.82092" lon="1.79636">
        <ele>273.2</ele>
        <time>2026-05-25T09:17:08Z</time>
      </trkpt>
      <trkpt lat="44.82093" lon="1.79636">
        <ele>273.4</ele>
        <time>2026-05-25T09:17:09Z</time>
      </trkpt>
      <trkpt lat="44.82093" lon="1.79637">
        <ele>273.4</ele>
        <time>2026-05-25T09:17:11Z</time>
      </trkpt>
      <trkpt lat="44.82096" lon="1.79638">
        <ele>273.6</ele>
        <time>2026-05-25T09:17:13Z</time>
      </trkpt>
      <trkpt lat="44.82097" lon="1.79636">
        <ele>273.6</ele>
        <time>2026-05-25T09:17:15Z</time>
      </trkpt>
      <trkpt lat="44.821" lon="1.79636">
        <ele>273.4</ele>
        <time>2026-05-25T09:17:17Z</time>
      </trkpt>
      <trkpt lat="44.821" lon="1.79637">
        <ele>273.8</ele>
        <time>2026-05-25T09:17:25Z</time>
      </trkpt>
      <trkpt lat="44.82102" lon="1.7964">
        <ele>273.6</ele>
        <time>2026-05-25T09:17:33Z</time>
      </trkpt>
      <trkpt lat="44.82103" lon="1.79641">
        <ele>273.6</ele>
        <time>2026-05-25T09:17:34Z</time>
      </trkpt>
      <trkpt lat="44.82103" lon="1.79642">
        <ele>273.6</ele>
        <time>2026-05-25T09:17:36Z</time>
      </trkpt>
      <trkpt lat="44.82104" lon="1.79644">
        <ele>274</ele>
        <time>2026-05-25T09:17:37Z</time>
      </trkpt>
      <trkpt lat="44.82105" lon="1.79644">
        <ele>274</ele>
        <time>2026-05-25T09:17:38Z</time>
      </trkpt>
      <trkpt lat="44.82105" lon="1.79645">
        <ele>274</ele>
        <time>2026-05-25T09:17:39Z</time>
      </trkpt>
      <trkpt lat="44.82106" lon="1.79645">
        <ele>273.2</ele>
        <time>2026-05-25T09:17:41Z</time>
      </trkpt>
      <trkpt lat="44.82105" lon="1.79647">
        <ele>273.2</ele>
        <time>2026-05-25T09:17:43Z</time>
      </trkpt>
      <trkpt lat="44.82105" lon="1.79648">
        <ele>273.8</ele>
        <time>2026-05-25T09:17:44Z</time>
      </trkpt>
      <trkpt lat="44.82104" lon="1.79649">
        <ele>273.4</ele>
        <time>2026-05-25T09:17:45Z</time>
      </trkpt>
      <trkpt lat="44.82105" lon="1.79651">
        <ele>273.4</ele>
        <time>2026-05-25T09:17:46Z</time>
      </trkpt>
      <trkpt lat="44.82104" lon="1.79652">
        <ele>273.4</ele>
        <time>2026-05-25T09:17:47Z</time>
      </trkpt>
      <trkpt lat="44.82104" lon="1.79653">
        <ele>273.4</ele>
        <time>2026-05-25T09:17:48Z</time>
      </trkpt>
      <trkpt lat="44.82103" lon="1.79654">
        <ele>273.8</ele>
        <time>2026-05-25T09:18:52Z</time>
      </trkpt>
      <trkpt lat="44.82107" lon="1.7966">
        <ele>273.6</ele>
        <time>2026-05-25T09:19:28Z</time>
      </trkpt>
      <trkpt lat="44.82108" lon="1.7966">
        <ele>273.8</ele>
        <time>2026-05-25T09:19:29Z</time>
      </trkpt>
      <trkpt lat="44.82111" lon="1.79663">
        <ele>273.6</ele>
        <time>2026-05-25T09:19:53Z</time>
      </trkpt>
      <trkpt lat="44.82113" lon="1.79663">
        <ele>273.6</ele>
        <time>2026-05-25T09:19:55Z</time>
      </trkpt>
      <trkpt lat="44.82113" lon="1.79664">
        <ele>273.8</ele>
        <time>2026-05-25T09:19:56Z</time>
      </trkpt>
      <trkpt lat="44.82114" lon="1.79664">
        <ele>273.8</ele>
        <time>2026-05-25T09:19:57Z</time>
      </trkpt>
      <trkpt lat="44.82114" lon="1.79663">
        <ele>273.8</ele>
        <time>2026-05-25T09:19:58Z</time>
      </trkpt>
      <trkpt lat="44.82119" lon="1.79663">
        <ele>273.8</ele>
        <time>2026-05-25T09:20:02Z</time>
      </trkpt>
      <trkpt lat="44.82119" lon="1.79662">
        <ele>273.8</ele>
        <time>2026-05-25T09:20:03Z</time>
      </trkpt>
      <trkpt lat="44.8212" lon="1.79662">
        <ele>273.8</ele>
        <time>2026-05-25T09:20:04Z</time>
      </trkpt>
      <trkpt lat="44.8212" lon="1.79661">
        <ele>274</ele>
        <time>2026-05-25T09:20:05Z</time>
      </trkpt>
      <trkpt lat="44.82121" lon="1.7966">
        <ele>274</ele>
        <time>2026-05-25T09:20:07Z</time>
      </trkpt>
      <trkpt lat="44.82123" lon="1.7966">
        <ele>274.2</ele>
        <time>2026-05-25T09:20:09Z</time>
      </trkpt>
      <trkpt lat="44.82124" lon="1.79661">
        <ele>274.2</ele>
        <time>2026-05-25T09:20:11Z</time>
      </trkpt>
      <trkpt lat="44.82125" lon="1.79661">
        <ele>273.8</ele>
        <time>2026-05-25T09:20:13Z</time>
      </trkpt>
      <trkpt lat="44.82126" lon="1.79662">
        <ele>273.8</ele>
        <time>2026-05-25T09:20:14Z</time>
      </trkpt>
      <trkpt lat="44.82128" lon="1.79662">
        <ele>274</ele>
        <time>2026-05-25T09:20:18Z</time>
      </trkpt>
      <trkpt lat="44.8213" lon="1.79663">
        <ele>274</ele>
        <time>2026-05-25T09:20:19Z</time>
      </trkpt>
      <trkpt lat="44.82131" lon="1.79662">
        <ele>274</ele>
        <time>2026-05-25T09:20:20Z</time>
      </trkpt>
      <trkpt lat="44.82132" lon="1.79662">
        <ele>273.6</ele>
        <time>2026-05-25T09:20:21Z</time>
      </trkpt>
      <trkpt lat="44.82132" lon="1.79663">
        <ele>273.6</ele>
        <time>2026-05-25T09:20:23Z</time>
      </trkpt>
      <trkpt lat="44.82134" lon="1.79664">
        <ele>273.6</ele>
        <time>2026-05-25T09:20:24Z</time>
      </trkpt>
      <trkpt lat="44.82134" lon="1.79663">
        <ele>274</ele>
        <time>2026-05-25T09:20:25Z</time>
      </trkpt>
      <trkpt lat="44.82136" lon="1.79663">
        <ele>274.2</ele>
        <time>2026-05-25T09:20:29Z</time>
      </trkpt>
      <trkpt lat="44.82139" lon="1.79664">
        <ele>274.2</ele>
        <time>2026-05-25T09:20:30Z</time>
      </trkpt>
      <trkpt lat="44.82142" lon="1.79664">
        <ele>274.2</ele>
        <time>2026-05-25T09:20:32Z</time>
      </trkpt>
      <trkpt lat="44.82143" lon="1.79665">
        <ele>273.8</ele>
        <time>2026-05-25T09:20:34Z</time>
      </trkpt>
      <trkpt lat="44.82145" lon="1.79664">
        <ele>273.8</ele>
        <time>2026-05-25T09:20:35Z</time>
      </trkpt>
      <trkpt lat="44.82154" lon="1.79664">
        <ele>275.6</ele>
        <time>2026-05-25T09:20:47Z</time>
      </trkpt>
      <trkpt lat="44.82155" lon="1.79663">
        <ele>274.6</ele>
        <time>2026-05-25T09:20:48Z</time>
      </trkpt>
      <trkpt lat="44.82156" lon="1.79663">
        <ele>275</ele>
        <time>2026-05-25T09:20:52Z</time>
      </trkpt>
      <trkpt lat="44.82162" lon="1.79662">
        <ele>275.2</ele>
        <time>2026-05-25T09:20:54Z</time>
      </trkpt>
      <trkpt lat="44.82163" lon="1.79662">
        <ele>275.2</ele>
        <time>2026-05-25T09:20:55Z</time>
      </trkpt>
      <trkpt lat="44.82164" lon="1.79661">
        <ele>275.2</ele>
        <time>2026-05-25T09:20:56Z</time>
      </trkpt>
      <trkpt lat="44.8217" lon="1.79661">
        <ele>275</ele>
        <time>2026-05-25T09:21:04Z</time>
      </trkpt>
      <trkpt lat="44.82176" lon="1.79663">
        <ele>274.6</ele>
        <time>2026-05-25T09:21:09Z</time>
      </trkpt>
      <trkpt lat="44.82177" lon="1.79663">
        <ele>274.6</ele>
        <time>2026-05-25T09:21:10Z</time>
      </trkpt>
      <trkpt lat="44.82179" lon="1.79662">
        <ele>275.6</ele>
        <time>2026-05-25T09:21:12Z</time>
      </trkpt>
      <trkpt lat="44.82182" lon="1.79661">
        <ele>275.4</ele>
        <time>2026-05-25T09:21:14Z</time>
      </trkpt>
      <trkpt lat="44.82184" lon="1.79661">
        <ele>275.4</ele>
        <time>2026-05-25T09:21:15Z</time>
      </trkpt>
      <trkpt lat="44.82185" lon="1.7966">
        <ele>275.2</ele>
        <time>2026-05-25T09:21:16Z</time>
      </trkpt>
      <trkpt lat="44.82187" lon="1.7966">
        <ele>276</ele>
        <time>2026-05-25T09:21:17Z</time>
      </trkpt>
      <trkpt lat="44.82188" lon="1.79659">
        <ele>276</ele>
        <time>2026-05-25T09:21:18Z</time>
      </trkpt>
      <trkpt lat="44.82189" lon="1.79659">
        <ele>276</ele>
        <time>2026-05-25T09:21:19Z</time>
      </trkpt>
      <trkpt lat="44.82191" lon="1.79657">
        <ele>275.2</ele>
        <time>2026-05-25T09:21:21Z</time>
      </trkpt>
      <trkpt lat="44.82194" lon="1.79657">
        <ele>275.2</ele>
        <time>2026-05-25T09:21:23Z</time>
      </trkpt>
      <trkpt lat="44.82195" lon="1.79655">
        <ele>275.6</ele>
        <time>2026-05-25T09:21:25Z</time>
      </trkpt>
      <trkpt lat="44.82197" lon="1.79653">
        <ele>275.6</ele>
        <time>2026-05-25T09:21:27Z</time>
      </trkpt>
      <trkpt lat="44.82199" lon="1.79652">
        <ele>276.2</ele>
        <time>2026-05-25T09:21:29Z</time>
      </trkpt>
      <trkpt lat="44.822" lon="1.79651">
        <ele>276.2</ele>
        <time>2026-05-25T09:21:30Z</time>
      </trkpt>
      <trkpt lat="44.82202" lon="1.7965">
        <ele>276.2</ele>
        <time>2026-05-25T09:21:31Z</time>
      </trkpt>
      <trkpt lat="44.82203" lon="1.79649">
        <ele>275.2</ele>
        <time>2026-05-25T09:21:32Z</time>
      </trkpt>
      <trkpt lat="44.82204" lon="1.79647">
        <ele>275</ele>
        <time>2026-05-25T09:21:33Z</time>
      </trkpt>
      <trkpt lat="44.82205" lon="1.79647">
        <ele>275</ele>
        <time>2026-05-25T09:21:35Z</time>
      </trkpt>
      <trkpt lat="44.82207" lon="1.79646">
        <ele>276</ele>
        <time>2026-05-25T09:21:36Z</time>
      </trkpt>
      <trkpt lat="44.82208" lon="1.79645">
        <ele>276.4</ele>
        <time>2026-05-25T09:21:37Z</time>
      </trkpt>
      <trkpt lat="44.8221" lon="1.79644">
        <ele>276.4</ele>
        <time>2026-05-25T09:21:38Z</time>
      </trkpt>
      <trkpt lat="44.8221" lon="1.79643">
        <ele>276.4</ele>
        <time>2026-05-25T09:21:39Z</time>
      </trkpt>
      <trkpt lat="44.82211" lon="1.79642">
        <ele>276.2</ele>
        <time>2026-05-25T09:21:41Z</time>
      </trkpt>
      <trkpt lat="44.82213" lon="1.79641">
        <ele>276</ele>
        <time>2026-05-25T09:21:45Z</time>
      </trkpt>
      <trkpt lat="44.82216" lon="1.79637">
        <ele>276</ele>
        <time>2026-05-25T09:21:47Z</time>
      </trkpt>
      <trkpt lat="44.82218" lon="1.79635">
        <ele>275.8</ele>
        <time>2026-05-25T09:21:49Z</time>
      </trkpt>
      <trkpt lat="44.82218" lon="1.79633">
        <ele>275.8</ele>
        <time>2026-05-25T09:21:50Z</time>
      </trkpt>
      <trkpt lat="44.82219" lon="1.79632">
        <ele>275.8</ele>
        <time>2026-05-25T09:21:51Z</time>
      </trkpt>
      <trkpt lat="44.8222" lon="1.7963">
        <ele>275.8</ele>
        <time>2026-05-25T09:21:52Z</time>
      </trkpt>
      <trkpt lat="44.82221" lon="1.79629">
        <ele>276</ele>
        <time>2026-05-25T09:21:53Z</time>
      </trkpt>
      <trkpt lat="44.82222" lon="1.79627">
        <ele>276</ele>
        <time>2026-05-25T09:21:54Z</time>
      </trkpt>
      <trkpt lat="44.82223" lon="1.79626">
        <ele>276</ele>
        <time>2026-05-25T09:21:55Z</time>
      </trkpt>
      <trkpt lat="44.82223" lon="1.79625">
        <ele>276.6</ele>
        <time>2026-05-25T09:22:03Z</time>
      </trkpt>
      <trkpt lat="44.82228" lon="1.79621">
        <ele>276.4</ele>
        <time>2026-05-25T09:22:09Z</time>
      </trkpt>
      <trkpt lat="44.82228" lon="1.79619">
        <ele>276.4</ele>
        <time>2026-05-25T09:22:10Z</time>
      </trkpt>
      <trkpt lat="44.82229" lon="1.79616">
        <ele>276.4</ele>
        <time>2026-05-25T09:22:11Z</time>
      </trkpt>
      <trkpt lat="44.8223" lon="1.79614">
        <ele>276.4</ele>
        <time>2026-05-25T09:22:12Z</time>
      </trkpt>
      <trkpt lat="44.8223" lon="1.79613">
        <ele>276.4</ele>
        <time>2026-05-25T09:22:13Z</time>
      </trkpt>
      <trkpt lat="44.82232" lon="1.79612">
        <ele>276.4</ele>
        <time>2026-05-25T09:22:14Z</time>
      </trkpt>
      <trkpt lat="44.82232" lon="1.79606">
        <ele>276.6</ele>
        <time>2026-05-25T09:22:18Z</time>
      </trkpt>
      <trkpt lat="44.82233" lon="1.79605">
        <ele>276.6</ele>
        <time>2026-05-25T09:22:19Z</time>
      </trkpt>
      <trkpt lat="44.82233" lon="1.79602">
        <ele>277.2</ele>
        <time>2026-05-25T09:22:21Z</time>
      </trkpt>
      <trkpt lat="44.82234" lon="1.79601">
        <ele>277.2</ele>
        <time>2026-05-25T09:22:22Z</time>
      </trkpt>
      <trkpt lat="44.82234" lon="1.79599">
        <ele>277.2</ele>
        <time>2026-05-25T09:22:24Z</time>
      </trkpt>
      <trkpt lat="44.82235" lon="1.79597">
        <ele>277</ele>
        <time>2026-05-25T09:23:28Z</time>
      </trkpt>
      <trkpt lat="44.82237" lon="1.79596">
        <ele>277.2</ele>
        <time>2026-05-25T09:23:43Z</time>
      </trkpt>
      <trkpt lat="44.82238" lon="1.79596">
        <ele>276.6</ele>
        <time>2026-05-25T09:23:44Z</time>
      </trkpt>
      <trkpt lat="44.8224" lon="1.79594">
        <ele>276.6</ele>
        <time>2026-05-25T09:31:23Z</time>
      </trkpt>
      <trkpt lat="44.82239" lon="1.79593">
        <ele>276.4</ele>
        <time>2026-05-25T09:31:29Z</time>
      </trkpt>
      <trkpt lat="44.8224" lon="1.79593">
        <ele>276.4</ele>
        <time>2026-05-25T09:31:30Z</time>
      </trkpt>
      <trkpt lat="44.8224" lon="1.79592">
        <ele>276.4</ele>
        <time>2026-05-25T09:31:32Z</time>
      </trkpt>
      <trkpt lat="44.82241" lon="1.7959">
        <ele>276.4</ele>
        <time>2026-05-25T09:31:34Z</time>
      </trkpt>
      <trkpt lat="44.82241" lon="1.79587">
        <ele>276.4</ele>
        <time>2026-05-25T09:31:37Z</time>
      </trkpt>
      <trkpt lat="44.82242" lon="1.79587">
        <ele>276.4</ele>
        <time>2026-05-25T09:31:39Z</time>
      </trkpt>
      <trkpt lat="44.82243" lon="1.79584">
        <ele>276.6</ele>
        <time>2026-05-25T09:31:41Z</time>
      </trkpt>
      <trkpt lat="44.82243" lon="1.7958">
        <ele>276.6</ele>
        <time>2026-05-25T09:31:45Z</time>
      </trkpt>
      <trkpt lat="44.82244" lon="1.79578">
        <ele>276.6</ele>
        <time>2026-05-25T09:31:47Z</time>
      </trkpt>
      <trkpt lat="44.82244" lon="1.79576">
        <ele>276.4</ele>
        <time>2026-05-25T09:31:51Z</time>
      </trkpt>
      <trkpt lat="44.82245" lon="1.79571">
        <ele>276.2</ele>
        <time>2026-05-25T09:31:55Z</time>
      </trkpt>
      <trkpt lat="44.82245" lon="1.79568">
        <ele>276.6</ele>
        <time>2026-05-25T09:31:57Z</time>
      </trkpt>
      <trkpt lat="44.82246" lon="1.79567">
        <ele>276.6</ele>
        <time>2026-05-25T09:31:58Z</time>
      </trkpt>
      <trkpt lat="44.82246" lon="1.79565">
        <ele>276.6</ele>
        <time>2026-05-25T09:31:59Z</time>
      </trkpt>
      <trkpt lat="44.82247" lon="1.79563">
        <ele>276</ele>
        <time>2026-05-25T09:32:00Z</time>
      </trkpt>
      <trkpt lat="44.82247" lon="1.79556">
        <ele>276</ele>
        <time>2026-05-25T09:32:04Z</time>
      </trkpt>
      <trkpt lat="44.82248" lon="1.79554">
        <ele>275.8</ele>
        <time>2026-05-25T09:32:05Z</time>
      </trkpt>
      <trkpt lat="44.82248" lon="1.79545">
        <ele>275.8</ele>
        <time>2026-05-25T09:32:10Z</time>
      </trkpt>
      <trkpt lat="44.82247" lon="1.79544">
        <ele>275.8</ele>
        <time>2026-05-25T09:32:11Z</time>
      </trkpt>
      <trkpt lat="44.82247" lon="1.79537">
        <ele>275.8</ele>
        <time>2026-05-25T09:32:15Z</time>
      </trkpt>
      <trkpt lat="44.82246" lon="1.79536">
        <ele>275.8</ele>
        <time>2026-05-25T09:32:16Z</time>
      </trkpt>
      <trkpt lat="44.82246" lon="1.7953">
        <ele>276.2</ele>
        <time>2026-05-25T09:32:20Z</time>
      </trkpt>
      <trkpt lat="44.82245" lon="1.79529">
        <ele>275.8</ele>
        <time>2026-05-25T09:32:21Z</time>
      </trkpt>
      <trkpt lat="44.82245" lon="1.79524">
        <ele>277</ele>
        <time>2026-05-25T09:32:25Z</time>
      </trkpt>
      <trkpt lat="44.82244" lon="1.79523">
        <ele>275.6</ele>
        <time>2026-05-25T09:32:41Z</time>
      </trkpt>
      <trkpt lat="44.82244" lon="1.79519">
        <ele>275.8</ele>
        <time>2026-05-25T09:32:49Z</time>
      </trkpt>
      <trkpt lat="44.82243" lon="1.79517">
        <ele>275.8</ele>
        <time>2026-05-25T09:32:51Z</time>
      </trkpt>
      <trkpt lat="44.82243" lon="1.79514">
        <ele>275.6</ele>
        <time>2026-05-25T09:32:53Z</time>
      </trkpt>
      <trkpt lat="44.82242" lon="1.79512">
        <ele>275.6</ele>
        <time>2026-05-25T09:32:55Z</time>
      </trkpt>
      <trkpt lat="44.82242" lon="1.7951">
        <ele>275.6</ele>
        <time>2026-05-25T09:32:56Z</time>
      </trkpt>
      <trkpt lat="44.82241" lon="1.79508">
        <ele>276.6</ele>
        <time>2026-05-25T09:32:57Z</time>
      </trkpt>
      <trkpt lat="44.82241" lon="1.79507">
        <ele>276.6</ele>
        <time>2026-05-25T09:32:58Z</time>
      </trkpt>
      <trkpt lat="44.8224" lon="1.79506">
        <ele>276.6</ele>
        <time>2026-05-25T09:32:59Z</time>
      </trkpt>
      <trkpt lat="44.82239" lon="1.79503">
        <ele>275.8</ele>
        <time>2026-05-25T09:33:01Z</time>
      </trkpt>
      <trkpt lat="44.82239" lon="1.79498">
        <ele>275.6</ele>
        <time>2026-05-25T09:33:04Z</time>
      </trkpt>
      <trkpt lat="44.82238" lon="1.79497">
        <ele>276.4</ele>
        <time>2026-05-25T09:33:05Z</time>
      </trkpt>
      <trkpt lat="44.82238" lon="1.79493">
        <ele>276.4</ele>
        <time>2026-05-25T09:33:07Z</time>
      </trkpt>
      <trkpt lat="44.82237" lon="1.79492">
        <ele>275.4</ele>
        <time>2026-05-25T09:33:08Z</time>
      </trkpt>
      <trkpt lat="44.82237" lon="1.7949">
        <ele>275</ele>
        <time>2026-05-25T09:33:09Z</time>
      </trkpt>
      <trkpt lat="44.82236" lon="1.79489">
        <ele>275</ele>
        <time>2026-05-25T09:33:10Z</time>
      </trkpt>
      <trkpt lat="44.82235" lon="1.79487">
        <ele>275</ele>
        <time>2026-05-25T09:33:11Z</time>
      </trkpt>
      <trkpt lat="44.82235" lon="1.79484">
        <ele>275.8</ele>
        <time>2026-05-25T09:33:13Z</time>
      </trkpt>
      <trkpt lat="44.82234" lon="1.79483">
        <ele>275.8</ele>
        <time>2026-05-25T09:33:14Z</time>
      </trkpt>
      <trkpt lat="44.82233" lon="1.79481">
        <ele>275.8</ele>
        <time>2026-05-25T09:33:15Z</time>
      </trkpt>
      <trkpt lat="44.82233" lon="1.79479">
        <ele>275.6</ele>
        <time>2026-05-25T09:33:17Z</time>
      </trkpt>
      <trkpt lat="44.82232" lon="1.79478">
        <ele>275.6</ele>
        <time>2026-05-25T09:33:18Z</time>
      </trkpt>
      <trkpt lat="44.82232" lon="1.79475">
        <ele>275.6</ele>
        <time>2026-05-25T09:33:20Z</time>
      </trkpt>
      <trkpt lat="44.8223" lon="1.79471">
        <ele>275.8</ele>
        <time>2026-05-25T09:33:23Z</time>
      </trkpt>
      <trkpt lat="44.8223" lon="1.79468">
        <ele>274.8</ele>
        <time>2026-05-25T09:33:25Z</time>
      </trkpt>
      <trkpt lat="44.82229" lon="1.79467">
        <ele>274.8</ele>
        <time>2026-05-25T09:33:26Z</time>
      </trkpt>
      <trkpt lat="44.82229" lon="1.79465">
        <ele>274.8</ele>
        <time>2026-05-25T09:33:27Z</time>
      </trkpt>
      <trkpt lat="44.8223" lon="1.79465">
        <ele>274.8</ele>
        <time>2026-05-25T09:33:28Z</time>
      </trkpt>
      <trkpt lat="44.82227" lon="1.79462">
        <ele>275.2</ele>
        <time>2026-05-25T09:33:36Z</time>
      </trkpt>
      <trkpt lat="44.82226" lon="1.7946">
        <ele>275.2</ele>
        <time>2026-05-25T09:33:37Z</time>
      </trkpt>
      <trkpt lat="44.82226" lon="1.79454">
        <ele>274.6</ele>
        <time>2026-05-25T09:33:43Z</time>
      </trkpt>
      <trkpt lat="44.82227" lon="1.79453">
        <ele>273</ele>
        <time>2026-05-25T09:33:45Z</time>
      </trkpt>
      <trkpt lat="44.82228" lon="1.79451">
        <ele>273</ele>
        <time>2026-05-25T09:33:46Z</time>
      </trkpt>
      <trkpt lat="44.82228" lon="1.79447">
        <ele>274.2</ele>
        <time>2026-05-25T09:33:49Z</time>
      </trkpt>
      <trkpt lat="44.82227" lon="1.79444">
        <ele>274.2</ele>
        <time>2026-05-25T09:33:50Z</time>
      </trkpt>
      <trkpt lat="44.82227" lon="1.79442">
        <ele>274.2</ele>
        <time>2026-05-25T09:33:51Z</time>
      </trkpt>
      <trkpt lat="44.82226" lon="1.79441">
        <ele>273.2</ele>
        <time>2026-05-25T09:33:52Z</time>
      </trkpt>
      <trkpt lat="44.82225" lon="1.79441">
        <ele>274.4</ele>
        <time>2026-05-25T09:33:53Z</time>
      </trkpt>
      <trkpt lat="44.82224" lon="1.7944">
        <ele>274.4</ele>
        <time>2026-05-25T09:33:54Z</time>
      </trkpt>
      <trkpt lat="44.82224" lon="1.79439">
        <ele>274.4</ele>
        <time>2026-05-25T09:33:55Z</time>
      </trkpt>
      <trkpt lat="44.82221" lon="1.79439">
        <ele>274</ele>
        <time>2026-05-25T09:33:58Z</time>
      </trkpt>
      <trkpt lat="44.82221" lon="1.79438">
        <ele>274</ele>
        <time>2026-05-25T09:33:59Z</time>
      </trkpt>
      <trkpt lat="44.8222" lon="1.79439">
        <ele>274.2</ele>
        <time>2026-05-25T09:34:00Z</time>
      </trkpt>
      <trkpt lat="44.82218" lon="1.79439">
        <ele>272</ele>
        <time>2026-05-25T09:34:02Z</time>
      </trkpt>
      <trkpt lat="44.82217" lon="1.79438">
        <ele>272</ele>
        <time>2026-05-25T09:34:03Z</time>
      </trkpt>
      <trkpt lat="44.82217" lon="1.79439">
        <ele>273</ele>
        <time>2026-05-25T09:34:04Z</time>
      </trkpt>
      <trkpt lat="44.82216" lon="1.79438">
        <ele>274.4</ele>
        <time>2026-05-25T09:34:05Z</time>
      </trkpt>
      <trkpt lat="44.82211" lon="1.79438">
        <ele>272.4</ele>
        <time>2026-05-25T09:34:10Z</time>
      </trkpt>
      <trkpt lat="44.82209" lon="1.79437">
        <ele>272.4</ele>
        <time>2026-05-25T09:34:11Z</time>
      </trkpt>
      <trkpt lat="44.82207" lon="1.79435">
        <ele>273.2</ele>
        <time>2026-05-25T09:34:13Z</time>
      </trkpt>
      <trkpt lat="44.82206" lon="1.79436">
        <ele>273.2</ele>
        <time>2026-05-25T09:34:14Z</time>
      </trkpt>
      <trkpt lat="44.82204" lon="1.79436">
        <ele>273.2</ele>
        <time>2026-05-25T09:34:16Z</time>
      </trkpt>
      <trkpt lat="44.82203" lon="1.79437">
        <ele>273.6</ele>
        <time>2026-05-25T09:34:17Z</time>
      </trkpt>
      <trkpt lat="44.82201" lon="1.79437">
        <ele>273.6</ele>
        <time>2026-05-25T09:34:19Z</time>
      </trkpt>
      <trkpt lat="44.822" lon="1.79438">
        <ele>273.2</ele>
        <time>2026-05-25T09:34:20Z</time>
      </trkpt>
      <trkpt lat="44.82195" lon="1.79438">
        <ele>272.2</ele>
        <time>2026-05-25T09:34:25Z</time>
      </trkpt>
      <trkpt lat="44.82194" lon="1.79439">
        <ele>272.2</ele>
        <time>2026-05-25T09:34:26Z</time>
      </trkpt>
      <trkpt lat="44.82192" lon="1.79439">
        <ele>272.2</ele>
        <time>2026-05-25T09:34:27Z</time>
      </trkpt>
      <trkpt lat="44.82191" lon="1.7944">
        <ele>272.2</ele>
        <time>2026-05-25T09:34:28Z</time>
      </trkpt>
      <trkpt lat="44.82189" lon="1.7944">
        <ele>273.4</ele>
        <time>2026-05-25T09:34:31Z</time>
      </trkpt>
      <trkpt lat="44.82188" lon="1.79441">
        <ele>273.4</ele>
        <time>2026-05-25T09:34:32Z</time>
      </trkpt>
      <trkpt lat="44.82186" lon="1.79441">
        <ele>273.2</ele>
        <time>2026-05-25T09:34:34Z</time>
      </trkpt>
      <trkpt lat="44.82185" lon="1.79442">
        <ele>273.2</ele>
        <time>2026-05-25T09:34:35Z</time>
      </trkpt>
      <trkpt lat="44.82184" lon="1.79442">
        <ele>272.8</ele>
        <time>2026-05-25T09:34:36Z</time>
      </trkpt>
      <trkpt lat="44.82183" lon="1.79443">
        <ele>272.8</ele>
        <time>2026-05-25T09:34:37Z</time>
      </trkpt>
      <trkpt lat="44.82181" lon="1.79443">
        <ele>272.8</ele>
        <time>2026-05-25T09:34:39Z</time>
      </trkpt>
      <trkpt lat="44.8218" lon="1.79444">
        <ele>272.8</ele>
        <time>2026-05-25T09:34:40Z</time>
      </trkpt>
      <trkpt lat="44.82179" lon="1.79443">
        <ele>271.6</ele>
        <time>2026-05-25T09:34:41Z</time>
      </trkpt>
      <trkpt lat="44.82177" lon="1.79444">
        <ele>271.6</ele>
        <time>2026-05-25T09:34:42Z</time>
      </trkpt>
      <trkpt lat="44.82175" lon="1.79444">
        <ele>272.2</ele>
        <time>2026-05-25T09:34:44Z</time>
      </trkpt>
      <trkpt lat="44.82175" lon="1.79445">
        <ele>272.8</ele>
        <time>2026-05-25T09:34:45Z</time>
      </trkpt>
      <trkpt lat="44.82174" lon="1.79446">
        <ele>272.8</ele>
        <time>2026-05-25T09:34:46Z</time>
      </trkpt>
      <trkpt lat="44.82174" lon="1.79449">
        <ele>274.2</ele>
        <time>2026-05-25T09:34:49Z</time>
      </trkpt>
      <trkpt lat="44.82172" lon="1.79451">
        <ele>274.2</ele>
        <time>2026-05-25T09:34:51Z</time>
      </trkpt>
      <trkpt lat="44.82171" lon="1.79451">
        <ele>274</ele>
        <time>2026-05-25T09:34:52Z</time>
      </trkpt>
      <trkpt lat="44.82169" lon="1.79453">
        <ele>274</ele>
        <time>2026-05-25T09:34:56Z</time>
      </trkpt>
      <trkpt lat="44.82167" lon="1.79454">
        <ele>274</ele>
        <time>2026-05-25T09:34:58Z</time>
      </trkpt>
      <trkpt lat="44.82166" lon="1.79454">
        <ele>274</ele>
        <time>2026-05-25T09:34:59Z</time>
      </trkpt>
      <trkpt lat="44.82166" lon="1.79455">
        <ele>273.4</ele>
        <time>2026-05-25T09:35:01Z</time>
      </trkpt>
      <trkpt lat="44.82164" lon="1.79458">
        <ele>273.4</ele>
        <time>2026-05-25T09:35:03Z</time>
      </trkpt>
      <trkpt lat="44.82163" lon="1.79458">
        <ele>273.4</ele>
        <time>2026-05-25T09:35:04Z</time>
      </trkpt>
      <trkpt lat="44.82162" lon="1.79459">
        <ele>273.2</ele>
        <time>2026-05-25T09:35:05Z</time>
      </trkpt>
      <trkpt lat="44.8216" lon="1.79459">
        <ele>273.2</ele>
        <time>2026-05-25T09:35:07Z</time>
      </trkpt>
      <trkpt lat="44.82159" lon="1.7946">
        <ele>273.2</ele>
        <time>2026-05-25T09:35:08Z</time>
      </trkpt>
      <trkpt lat="44.82158" lon="1.7946">
        <ele>273</ele>
        <time>2026-05-25T09:35:09Z</time>
      </trkpt>
      <trkpt lat="44.82158" lon="1.79461">
        <ele>273</ele>
        <time>2026-05-25T09:35:10Z</time>
      </trkpt>
      <trkpt lat="44.82156" lon="1.79461">
        <ele>273</ele>
        <time>2026-05-25T09:35:11Z</time>
      </trkpt>
      <trkpt lat="44.82156" lon="1.79462">
        <ele>272.8</ele>
        <time>2026-05-25T09:35:12Z</time>
      </trkpt>
      <trkpt lat="44.82154" lon="1.79463">
        <ele>272.8</ele>
        <time>2026-05-25T09:35:13Z</time>
      </trkpt>
      <trkpt lat="44.82153" lon="1.79463">
        <ele>272.8</ele>
        <time>2026-05-25T09:35:15Z</time>
      </trkpt>
      <trkpt lat="44.8215" lon="1.79464">
        <ele>273</ele>
        <time>2026-05-25T09:35:17Z</time>
      </trkpt>
      <trkpt lat="44.82148" lon="1.79466">
        <ele>273</ele>
        <time>2026-05-25T09:35:19Z</time>
      </trkpt>
      <trkpt lat="44.82146" lon="1.79466">
        <ele>273</ele>
        <time>2026-05-25T09:35:20Z</time>
      </trkpt>
      <trkpt lat="44.82145" lon="1.79468">
        <ele>272.8</ele>
        <time>2026-05-25T09:35:21Z</time>
      </trkpt>
      <trkpt lat="44.82144" lon="1.79468">
        <ele>272.4</ele>
        <time>2026-05-25T09:35:29Z</time>
      </trkpt>
      <trkpt lat="44.82143" lon="1.79474">
        <ele>273</ele>
        <time>2026-05-25T09:35:35Z</time>
      </trkpt>
      <trkpt lat="44.82143" lon="1.79475">
        <ele>272.8</ele>
        <time>2026-05-25T09:35:51Z</time>
      </trkpt>
      <trkpt lat="44.82139" lon="1.79477">
        <ele>272.8</ele>
        <time>2026-05-25T09:35:52Z</time>
      </trkpt>
      <trkpt lat="44.82138" lon="1.79477">
        <ele>272.8</ele>
        <time>2026-05-25T09:35:53Z</time>
      </trkpt>
      <trkpt lat="44.82136" lon="1.79479">
        <ele>272.8</ele>
        <time>2026-05-25T09:35:54Z</time>
      </trkpt>
      <trkpt lat="44.82134" lon="1.79479">
        <ele>272.8</ele>
        <time>2026-05-25T09:35:56Z</time>
      </trkpt>
      <trkpt lat="44.82128" lon="1.79485">
        <ele>273.2</ele>
        <time>2026-05-25T09:36:01Z</time>
      </trkpt>
      <trkpt lat="44.82127" lon="1.79485">
        <ele>273.2</ele>
        <time>2026-05-25T09:36:02Z</time>
      </trkpt>
      <trkpt lat="44.82124" lon="1.79488">
        <ele>273.2</ele>
        <time>2026-05-25T09:36:05Z</time>
      </trkpt>
      <trkpt lat="44.82124" lon="1.79489">
        <ele>273.2</ele>
        <time>2026-05-25T09:36:06Z</time>
      </trkpt>
      <trkpt lat="44.82123" lon="1.79489">
        <ele>273.2</ele>
        <time>2026-05-25T09:36:07Z</time>
      </trkpt>
      <trkpt lat="44.82123" lon="1.79495">
        <ele>272.6</ele>
        <time>2026-05-25T09:36:28Z</time>
      </trkpt>
      <trkpt lat="44.82122" lon="1.79496">
        <ele>272.8</ele>
        <time>2026-05-25T09:36:29Z</time>
      </trkpt>
      <trkpt lat="44.82121" lon="1.79496">
        <ele>272.8</ele>
        <time>2026-05-25T09:36:30Z</time>
      </trkpt>
      <trkpt lat="44.82114" lon="1.79503">
        <ele>271.6</ele>
        <time>2026-05-25T09:37:02Z</time>
      </trkpt>
      <trkpt lat="44.82113" lon="1.79507">
        <ele>272.4</ele>
        <time>2026-05-25T09:37:10Z</time>
      </trkpt>
      <trkpt lat="44.82112" lon="1.79508">
        <ele>272.4</ele>
        <time>2026-05-25T09:37:11Z</time>
      </trkpt>
      <trkpt lat="44.82112" lon="1.79509">
        <ele>272.4</ele>
        <time>2026-05-25T09:37:15Z</time>
      </trkpt>
      <trkpt lat="44.8211" lon="1.79512">
        <ele>272.6</ele>
        <time>2026-05-25T09:37:17Z</time>
      </trkpt>
      <trkpt lat="44.82109" lon="1.79514">
        <ele>272.6</ele>
        <time>2026-05-25T09:37:18Z</time>
      </trkpt>
      <trkpt lat="44.82107" lon="1.79514">
        <ele>272.6</ele>
        <time>2026-05-25T09:37:19Z</time>
      </trkpt>
      <trkpt lat="44.82104" lon="1.79517">
        <ele>272</ele>
        <time>2026-05-25T09:37:23Z</time>
      </trkpt>
      <trkpt lat="44.82102" lon="1.79518">
        <ele>271.8</ele>
        <time>2026-05-25T09:37:25Z</time>
      </trkpt>
      <trkpt lat="44.82101" lon="1.79519">
        <ele>271</ele>
        <time>2026-05-25T09:37:41Z</time>
      </trkpt>
      <trkpt lat="44.82098" lon="1.79525">
        <ele>271</ele>
        <time>2026-05-25T09:37:44Z</time>
      </trkpt>
      <trkpt lat="44.82096" lon="1.79523">
        <ele>271</ele>
        <time>2026-05-25T09:37:48Z</time>
      </trkpt>
      <trkpt lat="44.82096" lon="1.79517">
        <ele>271.6</ele>
        <time>2026-05-25T09:37:52Z</time>
      </trkpt>
      <trkpt lat="44.82095" lon="1.79517">
        <ele>271.2</ele>
        <time>2026-05-25T09:37:53Z</time>
      </trkpt>
      <trkpt lat="44.82095" lon="1.79516">
        <ele>271.2</ele>
        <time>2026-05-25T09:37:54Z</time>
      </trkpt>
      <trkpt lat="44.82091" lon="1.79512">
        <ele>271.6</ele>
        <time>2026-05-25T09:38:00Z</time>
      </trkpt>
      <trkpt lat="44.82091" lon="1.79511">
        <ele>271.2</ele>
        <time>2026-05-25T09:38:01Z</time>
      </trkpt>
      <trkpt lat="44.8209" lon="1.79511">
        <ele>271.2</ele>
        <time>2026-05-25T09:38:02Z</time>
      </trkpt>
      <trkpt lat="44.8209" lon="1.7951">
        <ele>271.2</ele>
        <time>2026-05-25T09:38:03Z</time>
      </trkpt>
      <trkpt lat="44.82088" lon="1.7951">
        <ele>271.4</ele>
        <time>2026-05-25T09:38:05Z</time>
      </trkpt>
      <trkpt lat="44.82088" lon="1.79509">
        <ele>271.4</ele>
        <time>2026-05-25T09:38:06Z</time>
      </trkpt>
      <trkpt lat="44.82087" lon="1.79509">
        <ele>271.4</ele>
        <time>2026-05-25T09:38:07Z</time>
      </trkpt>
      <trkpt lat="44.82085" lon="1.79508">
        <ele>271.4</ele>
        <time>2026-05-25T09:38:08Z</time>
      </trkpt>
      <trkpt lat="44.82084" lon="1.79509">
        <ele>272</ele>
        <time>2026-05-25T09:38:09Z</time>
      </trkpt>
      <trkpt lat="44.82082" lon="1.79509">
        <ele>272</ele>
        <time>2026-05-25T09:38:11Z</time>
      </trkpt>
      <trkpt lat="44.82081" lon="1.7951">
        <ele>271.8</ele>
        <time>2026-05-25T09:38:12Z</time>
      </trkpt>
      <trkpt lat="44.82079" lon="1.7951">
        <ele>271.6</ele>
        <time>2026-05-25T09:38:13Z</time>
      </trkpt>
      <trkpt lat="44.82079" lon="1.79511">
        <ele>271.6</ele>
        <time>2026-05-25T09:38:14Z</time>
      </trkpt>
      <trkpt lat="44.82078" lon="1.7951">
        <ele>271.6</ele>
        <time>2026-05-25T09:38:15Z</time>
      </trkpt>
      <trkpt lat="44.82077" lon="1.79511">
        <ele>271.6</ele>
        <time>2026-05-25T09:38:16Z</time>
      </trkpt>
      <trkpt lat="44.82075" lon="1.79511">
        <ele>271.2</ele>
        <time>2026-05-25T09:38:17Z</time>
      </trkpt>
      <trkpt lat="44.82074" lon="1.7951">
        <ele>271.2</ele>
        <time>2026-05-25T09:38:18Z</time>
      </trkpt>
      <trkpt lat="44.82071" lon="1.7951">
        <ele>271.2</ele>
        <time>2026-05-25T09:38:20Z</time>
      </trkpt>
      <trkpt lat="44.82066" lon="1.79505">
        <ele>271.8</ele>
        <time>2026-05-25T09:38:27Z</time>
      </trkpt>
      <trkpt lat="44.82066" lon="1.79504">
        <ele>271.8</ele>
        <time>2026-05-25T09:38:28Z</time>
      </trkpt>
      <trkpt lat="44.82064" lon="1.79503">
        <ele>272.2</ele>
        <time>2026-05-25T09:38:29Z</time>
      </trkpt>
      <trkpt lat="44.82063" lon="1.79502">
        <ele>272.2</ele>
        <time>2026-05-25T09:38:31Z</time>
      </trkpt>
      <trkpt lat="44.82062" lon="1.79502">
        <ele>271.8</ele>
        <time>2026-05-25T09:38:32Z</time>
      </trkpt>
      <trkpt lat="44.82061" lon="1.79501">
        <ele>271.8</ele>
        <time>2026-05-25T09:38:33Z</time>
      </trkpt>
      <trkpt lat="44.8206" lon="1.79501">
        <ele>271.8</ele>
        <time>2026-05-25T09:38:34Z</time>
      </trkpt>
      <trkpt lat="44.82058" lon="1.79502">
        <ele>271.8</ele>
        <time>2026-05-25T09:38:35Z</time>
      </trkpt>
      <trkpt lat="44.82054" lon="1.79502">
        <ele>271.8</ele>
        <time>2026-05-25T09:38:38Z</time>
      </trkpt>
      <trkpt lat="44.82052" lon="1.79503">
        <ele>271.8</ele>
        <time>2026-05-25T09:38:39Z</time>
      </trkpt>
      <trkpt lat="44.82051" lon="1.79503">
        <ele>271.6</ele>
        <time>2026-05-25T09:38:40Z</time>
      </trkpt>
      <trkpt lat="44.82049" lon="1.79505">
        <ele>270.6</ele>
        <time>2026-05-25T09:38:42Z</time>
      </trkpt>
      <trkpt lat="44.82048" lon="1.79505">
        <ele>271.2</ele>
        <time>2026-05-25T09:39:46Z</time>
      </trkpt>
      <trkpt lat="44.82046" lon="1.79509">
        <ele>271.6</ele>
        <time>2026-05-25T09:40:46Z</time>
      </trkpt>
      <trkpt lat="44.82044" lon="1.79509">
        <ele>271.6</ele>
        <time>2026-05-25T09:40:47Z</time>
      </trkpt>
      <trkpt lat="44.82044" lon="1.7951">
        <ele>271.4</ele>
        <time>2026-05-25T09:40:48Z</time>
      </trkpt>
      <trkpt lat="44.82041" lon="1.79513">
        <ele>271.6</ele>
        <time>2026-05-25T09:40:51Z</time>
      </trkpt>
      <trkpt lat="44.82041" lon="1.79514">
        <ele>271.6</ele>
        <time>2026-05-25T09:40:52Z</time>
      </trkpt>
      <trkpt lat="44.8204" lon="1.79514">
        <ele>271.4</ele>
        <time>2026-05-25T09:40:53Z</time>
      </trkpt>
      <trkpt lat="44.82039" lon="1.79516">
        <ele>271.4</ele>
        <time>2026-05-25T09:40:55Z</time>
      </trkpt>
      <trkpt lat="44.82038" lon="1.79517">
        <ele>271.4</ele>
        <time>2026-05-25T09:40:56Z</time>
      </trkpt>
      <trkpt lat="44.82037" lon="1.79517">
        <ele>271.8</ele>
        <time>2026-05-25T09:40:57Z</time>
      </trkpt>
      <trkpt lat="44.82036" lon="1.79518">
        <ele>271.8</ele>
        <time>2026-05-25T09:40:58Z</time>
      </trkpt>
      <trkpt lat="44.82035" lon="1.79518">
        <ele>271.8</ele>
        <time>2026-05-25T09:40:59Z</time>
      </trkpt>
      <trkpt lat="44.82034" lon="1.79519">
        <ele>271.6</ele>
        <time>2026-05-25T09:41:00Z</time>
      </trkpt>
      <trkpt lat="44.82033" lon="1.79519">
        <ele>271</ele>
        <time>2026-05-25T09:41:01Z</time>
      </trkpt>
      <trkpt lat="44.82032" lon="1.7952">
        <ele>271</ele>
        <time>2026-05-25T09:41:02Z</time>
      </trkpt>
      <trkpt lat="44.82031" lon="1.7952">
        <ele>271</ele>
        <time>2026-05-25T09:41:03Z</time>
      </trkpt>
      <trkpt lat="44.82031" lon="1.79521">
        <ele>271</ele>
        <time>2026-05-25T09:41:04Z</time>
      </trkpt>
      <trkpt lat="44.8203" lon="1.79521">
        <ele>272.2</ele>
        <time>2026-05-25T09:41:05Z</time>
      </trkpt>
      <trkpt lat="44.8203" lon="1.79522">
        <ele>272.2</ele>
        <time>2026-05-25T09:41:06Z</time>
      </trkpt>
      <trkpt lat="44.82029" lon="1.79523">
        <ele>272.2</ele>
        <time>2026-05-25T09:41:07Z</time>
      </trkpt>
      <trkpt lat="44.8203" lon="1.79522">
        <ele>271.2</ele>
        <time>2026-05-25T09:41:08Z</time>
      </trkpt>
      <trkpt lat="44.82029" lon="1.79523">
        <ele>271.4</ele>
        <time>2026-05-25T09:41:09Z</time>
      </trkpt>
      <trkpt lat="44.82029" lon="1.79526">
        <ele>271.4</ele>
        <time>2026-05-25T09:41:11Z</time>
      </trkpt>
      <trkpt lat="44.82028" lon="1.79526">
        <ele>271.4</ele>
        <time>2026-05-25T09:41:12Z</time>
      </trkpt>
      <trkpt lat="44.82028" lon="1.79528">
        <ele>271</ele>
        <time>2026-05-25T09:41:13Z</time>
      </trkpt>
      <trkpt lat="44.82027" lon="1.79529">
        <ele>271</ele>
        <time>2026-05-25T09:41:15Z</time>
      </trkpt>
      <trkpt lat="44.82027" lon="1.79536">
        <ele>272.2</ele>
        <time>2026-05-25T09:41:23Z</time>
      </trkpt>
      <trkpt lat="44.82026" lon="1.79536">
        <ele>271.6</ele>
        <time>2026-05-25T09:41:24Z</time>
      </trkpt>
      <trkpt lat="44.82025" lon="1.79537">
        <ele>271.6</ele>
        <time>2026-05-25T09:41:25Z</time>
      </trkpt>
      <trkpt lat="44.82025" lon="1.79538">
        <ele>271.4</ele>
        <time>2026-05-25T09:41:29Z</time>
      </trkpt>
      <trkpt lat="44.82023" lon="1.79542">
        <ele>271.4</ele>
        <time>2026-05-25T09:41:31Z</time>
      </trkpt>
      <trkpt lat="44.82022" lon="1.79543">
        <ele>271.8</ele>
        <time>2026-05-25T09:41:32Z</time>
      </trkpt>
      <trkpt lat="44.82021" lon="1.79543">
        <ele>271.8</ele>
        <time>2026-05-25T09:41:33Z</time>
      </trkpt>
      <trkpt lat="44.8202" lon="1.79544">
        <ele>271.8</ele>
        <time>2026-05-25T09:41:34Z</time>
      </trkpt>
      <trkpt lat="44.82018" lon="1.79544">
        <ele>271.8</ele>
        <time>2026-05-25T09:41:35Z</time>
      </trkpt>
      <trkpt lat="44.82017" lon="1.79545">
        <ele>271.8</ele>
        <time>2026-05-25T09:41:36Z</time>
      </trkpt>
      <trkpt lat="44.82016" lon="1.79545">
        <ele>272.2</ele>
        <time>2026-05-25T09:41:37Z</time>
      </trkpt>
      <trkpt lat="44.82016" lon="1.79546">
        <ele>272.2</ele>
        <time>2026-05-25T09:41:39Z</time>
      </trkpt>
      <trkpt lat="44.82014" lon="1.79547">
        <ele>271.4</ele>
        <time>2026-05-25T09:41:41Z</time>
      </trkpt>
      <trkpt lat="44.82013" lon="1.79548">
        <ele>271.4</ele>
        <time>2026-05-25T09:41:42Z</time>
      </trkpt>
      <trkpt lat="44.82012" lon="1.79548">
        <ele>271.4</ele>
        <time>2026-05-25T09:41:43Z</time>
      </trkpt>
      <trkpt lat="44.82011" lon="1.79549">
        <ele>271.8</ele>
        <time>2026-05-25T09:41:44Z</time>
      </trkpt>
      <trkpt lat="44.8201" lon="1.79549">
        <ele>271.2</ele>
        <time>2026-05-25T09:42:00Z</time>
      </trkpt>
      <trkpt lat="44.82002" lon="1.79548">
        <ele>271.4</ele>
        <time>2026-05-25T09:42:03Z</time>
      </trkpt>
      <trkpt lat="44.82001" lon="1.79548">
        <ele>271.8</ele>
        <time>2026-05-25T09:42:19Z</time>
      </trkpt>
      <trkpt lat="44.81999" lon="1.79547">
        <ele>271.2</ele>
        <time>2026-05-25T09:42:28Z</time>
      </trkpt>
      <trkpt lat="44.81999" lon="1.79545">
        <ele>271.6</ele>
        <time>2026-05-25T09:42:44Z</time>
      </trkpt>
      <trkpt lat="44.81996" lon="1.79537">
        <ele>271.8</ele>
        <time>2026-05-25T09:42:46Z</time>
      </trkpt>
      <trkpt lat="44.81996" lon="1.79536">
        <ele>271.8</ele>
        <time>2026-05-25T09:42:47Z</time>
      </trkpt>
      <trkpt lat="44.81995" lon="1.79535">
        <ele>271.8</ele>
        <time>2026-05-25T09:42:48Z</time>
      </trkpt>
      <trkpt lat="44.81994" lon="1.79533">
        <ele>271.8</ele>
        <time>2026-05-25T09:42:49Z</time>
      </trkpt>
      <trkpt lat="44.81994" lon="1.79532">
        <ele>271.8</ele>
        <time>2026-05-25T09:42:50Z</time>
      </trkpt>
      <trkpt lat="44.81993" lon="1.79531">
        <ele>271.8</ele>
        <time>2026-05-25T09:42:51Z</time>
      </trkpt>
      <trkpt lat="44.81993" lon="1.7953">
        <ele>271.2</ele>
        <time>2026-05-25T09:42:53Z</time>
      </trkpt>
      <trkpt lat="44.81992" lon="1.79527">
        <ele>271.8</ele>
        <time>2026-05-25T09:42:57Z</time>
      </trkpt>
      <trkpt lat="44.81992" lon="1.79524">
        <ele>271.8</ele>
        <time>2026-05-25T09:42:58Z</time>
      </trkpt>
      <trkpt lat="44.81991" lon="1.79522">
        <ele>271.8</ele>
        <time>2026-05-25T09:42:59Z</time>
      </trkpt>
      <trkpt lat="44.81991" lon="1.7952">
        <ele>271.6</ele>
        <time>2026-05-25T09:43:01Z</time>
      </trkpt>
      <trkpt lat="44.8199" lon="1.7952">
        <ele>271.6</ele>
        <time>2026-05-25T09:43:17Z</time>
      </trkpt>
      <trkpt lat="44.81986" lon="1.79504">
        <ele>272.2</ele>
        <time>2026-05-25T09:43:24Z</time>
      </trkpt>
      <trkpt lat="44.81985" lon="1.79502">
        <ele>271.2</ele>
        <time>2026-05-25T09:43:25Z</time>
      </trkpt>
      <trkpt lat="44.81985" lon="1.795">
        <ele>271.2</ele>
        <time>2026-05-25T09:43:26Z</time>
      </trkpt>
      <trkpt lat="44.81984" lon="1.79498">
        <ele>271.2</ele>
        <time>2026-05-25T09:43:27Z</time>
      </trkpt>
      <trkpt lat="44.81984" lon="1.79496">
        <ele>271.8</ele>
        <time>2026-05-25T09:43:28Z</time>
      </trkpt>
      <trkpt lat="44.81983" lon="1.79495">
        <ele>271.6</ele>
        <time>2026-05-25T09:43:29Z</time>
      </trkpt>
      <trkpt lat="44.81983" lon="1.79494">
        <ele>271.2</ele>
        <time>2026-05-25T09:43:33Z</time>
      </trkpt>
      <trkpt lat="44.81982" lon="1.7949">
        <ele>271.2</ele>
        <time>2026-05-25T09:43:35Z</time>
      </trkpt>
      <trkpt lat="44.81981" lon="1.79488">
        <ele>271.6</ele>
        <time>2026-05-25T09:43:36Z</time>
      </trkpt>
      <trkpt lat="44.8198" lon="1.79487">
        <ele>271.4</ele>
        <time>2026-05-25T09:43:37Z</time>
      </trkpt>
      <trkpt lat="44.8198" lon="1.79485">
        <ele>272.2</ele>
        <time>2026-05-25T09:43:41Z</time>
      </trkpt>
      <trkpt lat="44.81978" lon="1.7948">
        <ele>272.2</ele>
        <time>2026-05-25T09:43:42Z</time>
      </trkpt>
      <trkpt lat="44.81978" lon="1.79476">
        <ele>272.2</ele>
        <time>2026-05-25T09:43:44Z</time>
      </trkpt>
      <trkpt lat="44.81977" lon="1.79475">
        <ele>271.8</ele>
        <time>2026-05-25T09:43:45Z</time>
      </trkpt>
      <trkpt lat="44.81977" lon="1.79472">
        <ele>272.2</ele>
        <time>2026-05-25T09:43:49Z</time>
      </trkpt>
      <trkpt lat="44.81976" lon="1.79467">
        <ele>272.2</ele>
        <time>2026-05-25T09:43:52Z</time>
      </trkpt>
      <trkpt lat="44.81975" lon="1.79466">
        <ele>271.8</ele>
        <time>2026-05-25T09:43:53Z</time>
      </trkpt>
      <trkpt lat="44.81975" lon="1.79463">
        <ele>271.8</ele>
        <time>2026-05-25T09:43:56Z</time>
      </trkpt>
      <trkpt lat="44.81973" lon="1.79461">
        <ele>271.8</ele>
        <time>2026-05-25T09:43:58Z</time>
      </trkpt>
      <trkpt lat="44.81972" lon="1.79459">
        <ele>271.8</ele>
        <time>2026-05-25T09:44:00Z</time>
      </trkpt>
      <trkpt lat="44.81972" lon="1.79454">
        <ele>271.8</ele>
        <time>2026-05-25T09:44:04Z</time>
      </trkpt>
      <trkpt lat="44.8197" lon="1.79453">
        <ele>272</ele>
        <time>2026-05-25T09:44:05Z</time>
      </trkpt>
      <trkpt lat="44.8197" lon="1.79451">
        <ele>272</ele>
        <time>2026-05-25T09:44:06Z</time>
      </trkpt>
      <trkpt lat="44.81968" lon="1.79449">
        <ele>272</ele>
        <time>2026-05-25T09:44:08Z</time>
      </trkpt>
      <trkpt lat="44.81968" lon="1.79448">
        <ele>272.4</ele>
        <time>2026-05-25T09:44:10Z</time>
      </trkpt>
      <trkpt lat="44.81967" lon="1.79445">
        <ele>271.6</ele>
        <time>2026-05-25T09:44:12Z</time>
      </trkpt>
      <trkpt lat="44.81967" lon="1.79444">
        <ele>272</ele>
        <time>2026-05-25T09:44:20Z</time>
      </trkpt>
      <trkpt lat="44.81963" lon="1.79437">
        <ele>271.2</ele>
        <time>2026-05-25T09:44:24Z</time>
      </trkpt>
      <trkpt lat="44.81962" lon="1.79433">
        <ele>271.4</ele>
        <time>2026-05-25T09:44:25Z</time>
      </trkpt>
      <trkpt lat="44.81961" lon="1.79431">
        <ele>271.4</ele>
        <time>2026-05-25T09:44:26Z</time>
      </trkpt>
      <trkpt lat="44.8196" lon="1.79431">
        <ele>272.2</ele>
        <time>2026-05-25T09:44:28Z</time>
      </trkpt>
      <trkpt lat="44.81957" lon="1.79427">
        <ele>272.2</ele>
        <time>2026-05-25T09:44:29Z</time>
      </trkpt>
      <trkpt lat="44.81955" lon="1.79425">
        <ele>272.2</ele>
        <time>2026-05-25T09:44:31Z</time>
      </trkpt>
      <trkpt lat="44.81955" lon="1.79424">
        <ele>271.8</ele>
        <time>2026-05-25T09:44:32Z</time>
      </trkpt>
      <trkpt lat="44.81954" lon="1.79423">
        <ele>272.2</ele>
        <time>2026-05-25T09:44:33Z</time>
      </trkpt>
      <trkpt lat="44.81953" lon="1.79421">
        <ele>272.2</ele>
        <time>2026-05-25T09:44:35Z</time>
      </trkpt>
      <trkpt lat="44.81952" lon="1.79421">
        <ele>272</ele>
        <time>2026-05-25T09:44:36Z</time>
      </trkpt>
      <trkpt lat="44.81951" lon="1.79419">
        <ele>272.2</ele>
        <time>2026-05-25T09:44:37Z</time>
      </trkpt>
      <trkpt lat="44.8195" lon="1.79419">
        <ele>272.2</ele>
        <time>2026-05-25T09:44:38Z</time>
      </trkpt>
      <trkpt lat="44.8195" lon="1.79418">
        <ele>272.2</ele>
        <time>2026-05-25T09:44:39Z</time>
      </trkpt>
      <trkpt lat="44.81948" lon="1.79416">
        <ele>271.4</ele>
        <time>2026-05-25T09:44:41Z</time>
      </trkpt>
      <trkpt lat="44.81948" lon="1.79415">
        <ele>271.4</ele>
        <time>2026-05-25T09:44:43Z</time>
      </trkpt>
      <trkpt lat="44.81947" lon="1.79414">
        <ele>272</ele>
        <time>2026-05-25T09:44:45Z</time>
      </trkpt>
      <trkpt lat="44.81946" lon="1.79411">
        <ele>272</ele>
        <time>2026-05-25T09:44:47Z</time>
      </trkpt>
      <trkpt lat="44.81946" lon="1.7941">
        <ele>271.6</ele>
        <time>2026-05-25T09:44:48Z</time>
      </trkpt>
      <trkpt lat="44.81945" lon="1.79409">
        <ele>272</ele>
        <time>2026-05-25T09:44:49Z</time>
      </trkpt>
      <trkpt lat="44.81945" lon="1.79407">
        <ele>272</ele>
        <time>2026-05-25T09:44:51Z</time>
      </trkpt>
      <trkpt lat="44.81944" lon="1.79406">
        <ele>272</ele>
        <time>2026-05-25T09:44:52Z</time>
      </trkpt>
      <trkpt lat="44.81944" lon="1.79404">
        <ele>272.6</ele>
        <time>2026-05-25T09:44:53Z</time>
      </trkpt>
      <trkpt lat="44.81943" lon="1.79404">
        <ele>271.8</ele>
        <time>2026-05-25T09:44:57Z</time>
      </trkpt>
      <trkpt lat="44.8194" lon="1.79403">
        <ele>271.8</ele>
        <time>2026-05-25T09:44:58Z</time>
      </trkpt>
      <trkpt lat="44.8194" lon="1.79402">
        <ele>271.8</ele>
        <time>2026-05-25T09:45:00Z</time>
      </trkpt>
      <trkpt lat="44.81937" lon="1.79402">
        <ele>271.8</ele>
        <time>2026-05-25T09:45:01Z</time>
      </trkpt>
      <trkpt lat="44.81936" lon="1.79401">
        <ele>271.8</ele>
        <time>2026-05-25T09:45:02Z</time>
      </trkpt>
      <trkpt lat="44.81935" lon="1.79399">
        <ele>270.8</ele>
        <time>2026-05-25T09:45:06Z</time>
      </trkpt>
      <trkpt lat="44.81934" lon="1.79393">
        <ele>271.8</ele>
        <time>2026-05-25T09:45:08Z</time>
      </trkpt>
      <trkpt lat="44.81935" lon="1.79391">
        <ele>271.6</ele>
        <time>2026-05-25T09:45:10Z</time>
      </trkpt>
      <trkpt lat="44.81934" lon="1.79389">
        <ele>271.6</ele>
        <time>2026-05-25T09:45:11Z</time>
      </trkpt>
      <trkpt lat="44.81933" lon="1.79389">
        <ele>271.8</ele>
        <time>2026-05-25T09:45:19Z</time>
      </trkpt>
      <trkpt lat="44.8193" lon="1.79378">
        <ele>272.6</ele>
        <time>2026-05-25T09:45:22Z</time>
      </trkpt>
      <trkpt lat="44.81928" lon="1.79379">
        <ele>272.6</ele>
        <time>2026-05-25T09:45:23Z</time>
      </trkpt>
      <trkpt lat="44.81927" lon="1.79379">
        <ele>271.6</ele>
        <time>2026-05-25T09:45:24Z</time>
      </trkpt>
      <trkpt lat="44.81927" lon="1.79381">
        <ele>272</ele>
        <time>2026-05-25T09:45:25Z</time>
      </trkpt>
      <trkpt lat="44.81928" lon="1.7938">
        <ele>272</ele>
        <time>2026-05-25T09:45:26Z</time>
      </trkpt>
      <trkpt lat="44.81928" lon="1.79381">
        <ele>271.2</ele>
        <time>2026-05-25T09:45:28Z</time>
      </trkpt>
      <trkpt lat="44.81926" lon="1.79381">
        <ele>269.6</ele>
        <time>2026-05-25T09:45:30Z</time>
      </trkpt>
      <trkpt lat="44.81926" lon="1.7938">
        <ele>271.8</ele>
        <time>2026-05-25T09:45:34Z</time>
      </trkpt>
      <trkpt lat="44.81925" lon="1.79375">
        <ele>271.8</ele>
        <time>2026-05-25T09:45:38Z</time>
      </trkpt>
      <trkpt lat="44.81923" lon="1.79371">
        <ele>271.8</ele>
        <time>2026-05-25T09:45:39Z</time>
      </trkpt>
      <trkpt lat="44.81923" lon="1.79368">
        <ele>271.2</ele>
        <time>2026-05-25T09:45:40Z</time>
      </trkpt>
      <trkpt lat="44.81922" lon="1.79364">
        <ele>271.6</ele>
        <time>2026-05-25T09:45:41Z</time>
      </trkpt>
      <trkpt lat="44.81922" lon="1.79362">
        <ele>271.6</ele>
        <time>2026-05-25T09:45:42Z</time>
      </trkpt>
      <trkpt lat="44.81922" lon="1.79363">
        <ele>271.6</ele>
        <time>2026-05-25T09:45:43Z</time>
      </trkpt>
      <trkpt lat="44.81921" lon="1.79361">
        <ele>271.6</ele>
        <time>2026-05-25T09:45:44Z</time>
      </trkpt>
      <trkpt lat="44.81921" lon="1.79356">
        <ele>271</ele>
        <time>2026-05-25T09:45:52Z</time>
      </trkpt>
      <trkpt lat="44.81922" lon="1.79354">
        <ele>271.4</ele>
        <time>2026-05-25T09:45:54Z</time>
      </trkpt>
      <trkpt lat="44.81923" lon="1.79353">
        <ele>271.4</ele>
        <time>2026-05-25T09:45:55Z</time>
      </trkpt>
      <trkpt lat="44.81923" lon="1.79352">
        <ele>269.4</ele>
        <time>2026-05-25T09:45:57Z</time>
      </trkpt>
      <trkpt lat="44.81924" lon="1.79351">
        <ele>269.4</ele>
        <time>2026-05-25T09:45:59Z</time>
      </trkpt>
      <trkpt lat="44.81924" lon="1.7934">
        <ele>272.2</ele>
        <time>2026-05-25T09:46:08Z</time>
      </trkpt>
      <trkpt lat="44.81925" lon="1.79336">
        <ele>271.6</ele>
        <time>2026-05-25T09:46:09Z</time>
      </trkpt>
      <trkpt lat="44.81925" lon="1.7933">
        <ele>272</ele>
        <time>2026-05-25T09:46:13Z</time>
      </trkpt>
      <trkpt lat="44.81924" lon="1.7933">
        <ele>272</ele>
        <time>2026-05-25T09:46:14Z</time>
      </trkpt>
      <trkpt lat="44.81924" lon="1.79328">
        <ele>272</ele>
        <time>2026-05-25T09:46:15Z</time>
      </trkpt>
      <trkpt lat="44.81923" lon="1.79328">
        <ele>272</ele>
        <time>2026-05-25T09:46:16Z</time>
      </trkpt>
      <trkpt lat="44.81923" lon="1.79321">
        <ele>271</ele>
        <time>2026-05-25T09:46:20Z</time>
      </trkpt>
      <trkpt lat="44.81924" lon="1.79321">
        <ele>270.4</ele>
        <time>2026-05-25T09:46:22Z</time>
      </trkpt>
      <trkpt lat="44.81923" lon="1.79318">
        <ele>270.4</ele>
        <time>2026-05-25T09:46:23Z</time>
      </trkpt>
      <trkpt lat="44.81923" lon="1.79315">
        <ele>271.2</ele>
        <time>2026-05-25T09:46:26Z</time>
      </trkpt>
      <trkpt lat="44.81922" lon="1.79314">
        <ele>271.2</ele>
        <time>2026-05-25T09:46:27Z</time>
      </trkpt>
      <trkpt lat="44.81922" lon="1.79312">
        <ele>269.4</ele>
        <time>2026-05-25T09:46:31Z</time>
      </trkpt>
      <trkpt lat="44.81921" lon="1.79309">
        <ele>270.8</ele>
        <time>2026-05-25T09:46:33Z</time>
      </trkpt>
      <trkpt lat="44.8192" lon="1.79309">
        <ele>270.8</ele>
        <time>2026-05-25T09:46:34Z</time>
      </trkpt>
      <trkpt lat="44.8192" lon="1.79307">
        <ele>270.8</ele>
        <time>2026-05-25T09:46:36Z</time>
      </trkpt>
      <trkpt lat="44.81919" lon="1.79306">
        <ele>270.4</ele>
        <time>2026-05-25T09:46:52Z</time>
      </trkpt>
      <trkpt lat="44.8191" lon="1.79298">
        <ele>271</ele>
        <time>2026-05-25T09:47:56Z</time>
      </trkpt>
      <trkpt lat="44.81905" lon="1.7929">
        <ele>271.6</ele>
        <time>2026-05-25T09:48:53Z</time>
      </trkpt>
      <trkpt lat="44.81903" lon="1.79286">
        <ele>271.6</ele>
        <time>2026-05-25T09:48:55Z</time>
      </trkpt>
      <trkpt lat="44.81903" lon="1.79283">
        <ele>271.6</ele>
        <time>2026-05-25T09:48:57Z</time>
      </trkpt>
      <trkpt lat="44.81902" lon="1.79281">
        <ele>271.6</ele>
        <time>2026-05-25T09:48:58Z</time>
      </trkpt>
      <trkpt lat="44.81902" lon="1.7928">
        <ele>271.6</ele>
        <time>2026-05-25T09:48:59Z</time>
      </trkpt>
      <trkpt lat="44.81901" lon="1.79279">
        <ele>271.4</ele>
        <time>2026-05-25T09:49:00Z</time>
      </trkpt>
      <trkpt lat="44.81901" lon="1.79276">
        <ele>272.2</ele>
        <time>2026-05-25T09:49:02Z</time>
      </trkpt>
      <trkpt lat="44.819" lon="1.79277">
        <ele>272.2</ele>
        <time>2026-05-25T09:49:04Z</time>
      </trkpt>
      <trkpt lat="44.819" lon="1.79276">
        <ele>271</ele>
        <time>2026-05-25T09:49:05Z</time>
      </trkpt>
      <trkpt lat="44.81899" lon="1.79275">
        <ele>271</ele>
        <time>2026-05-25T09:49:06Z</time>
      </trkpt>
      <trkpt lat="44.81899" lon="1.79274">
        <ele>271</ele>
        <time>2026-05-25T09:49:07Z</time>
      </trkpt>
      <trkpt lat="44.81898" lon="1.79273">
        <ele>271</ele>
        <time>2026-05-25T09:49:08Z</time>
      </trkpt>
      <trkpt lat="44.81898" lon="1.79272">
        <ele>271.4</ele>
        <time>2026-05-25T09:49:09Z</time>
      </trkpt>
      <trkpt lat="44.81897" lon="1.79272">
        <ele>271.4</ele>
        <time>2026-05-25T09:49:10Z</time>
      </trkpt>
      <trkpt lat="44.81896" lon="1.79271">
        <ele>271.4</ele>
        <time>2026-05-25T09:49:11Z</time>
      </trkpt>
      <trkpt lat="44.81895" lon="1.79271">
        <ele>271</ele>
        <time>2026-05-25T09:49:12Z</time>
      </trkpt>
      <trkpt lat="44.81894" lon="1.7927">
        <ele>271.2</ele>
        <time>2026-05-25T09:49:16Z</time>
      </trkpt>
      <trkpt lat="44.81891" lon="1.79268">
        <ele>271</ele>
        <time>2026-05-25T09:49:18Z</time>
      </trkpt>
      <trkpt lat="44.81888" lon="1.79265">
        <ele>271</ele>
        <time>2026-05-25T09:49:23Z</time>
      </trkpt>
      <trkpt lat="44.81887" lon="1.79265">
        <ele>270.8</ele>
        <time>2026-05-25T09:49:24Z</time>
      </trkpt>
      <trkpt lat="44.81887" lon="1.79264">
        <ele>271.2</ele>
        <time>2026-05-25T09:49:25Z</time>
      </trkpt>
      <trkpt lat="44.81886" lon="1.79264">
        <ele>271.2</ele>
        <time>2026-05-25T09:49:26Z</time>
      </trkpt>
      <trkpt lat="44.81886" lon="1.79263">
        <ele>270.8</ele>
        <time>2026-05-25T09:49:28Z</time>
      </trkpt>
      <trkpt lat="44.81883" lon="1.79262">
        <ele>271.2</ele>
        <time>2026-05-25T09:49:29Z</time>
      </trkpt>
      <trkpt lat="44.81882" lon="1.79262">
        <ele>271.2</ele>
        <time>2026-05-25T09:49:30Z</time>
      </trkpt>
      <trkpt lat="44.8188" lon="1.7926">
        <ele>271.6</ele>
        <time>2026-05-25T09:49:33Z</time>
      </trkpt>
      <trkpt lat="44.81878" lon="1.7926">
        <ele>271.6</ele>
        <time>2026-05-25T09:49:35Z</time>
      </trkpt>
      <trkpt lat="44.81877" lon="1.79259">
        <ele>271.6</ele>
        <time>2026-05-25T09:49:36Z</time>
      </trkpt>
      <trkpt lat="44.81876" lon="1.7926">
        <ele>270.2</ele>
        <time>2026-05-25T09:49:37Z</time>
      </trkpt>
      <trkpt lat="44.81875" lon="1.79259">
        <ele>270.2</ele>
        <time>2026-05-25T09:49:38Z</time>
      </trkpt>
      <trkpt lat="44.81875" lon="1.79258">
        <ele>270.2</ele>
        <time>2026-05-25T09:49:39Z</time>
      </trkpt>
      <trkpt lat="44.81873" lon="1.79258">
        <ele>271.8</ele>
        <time>2026-05-25T09:49:41Z</time>
      </trkpt>
      <trkpt lat="44.81872" lon="1.79257">
        <ele>271.8</ele>
        <time>2026-05-25T09:49:42Z</time>
      </trkpt>
      <trkpt lat="44.81871" lon="1.79257">
        <ele>271.8</ele>
        <time>2026-05-25T09:49:43Z</time>
      </trkpt>
      <trkpt lat="44.81871" lon="1.79256">
        <ele>270.8</ele>
        <time>2026-05-25T09:49:44Z</time>
      </trkpt>
      <trkpt lat="44.81868" lon="1.79253">
        <ele>271.2</ele>
        <time>2026-05-25T09:49:47Z</time>
      </trkpt>
      <trkpt lat="44.81865" lon="1.79253">
        <ele>270.8</ele>
        <time>2026-05-25T09:49:50Z</time>
      </trkpt>
      <trkpt lat="44.81865" lon="1.79252">
        <ele>270.8</ele>
        <time>2026-05-25T09:49:51Z</time>
      </trkpt>
      <trkpt lat="44.81864" lon="1.79251">
        <ele>270.6</ele>
        <time>2026-05-25T09:49:53Z</time>
      </trkpt>
      <trkpt lat="44.8186" lon="1.79249">
        <ele>271.2</ele>
        <time>2026-05-25T09:49:57Z</time>
      </trkpt>
      <trkpt lat="44.81859" lon="1.79249">
        <ele>271.2</ele>
        <time>2026-05-25T09:49:58Z</time>
      </trkpt>
      <trkpt lat="44.81855" lon="1.79251">
        <ele>270.8</ele>
        <time>2026-05-25T09:50:00Z</time>
      </trkpt>
      <trkpt lat="44.81854" lon="1.79251">
        <ele>271.2</ele>
        <time>2026-05-25T09:50:04Z</time>
      </trkpt>
      <trkpt lat="44.81851" lon="1.79254">
        <ele>271.2</ele>
        <time>2026-05-25T09:50:07Z</time>
      </trkpt>
      <trkpt lat="44.8185" lon="1.79254">
        <ele>271.2</ele>
        <time>2026-05-25T09:50:08Z</time>
      </trkpt>
      <trkpt lat="44.81849" lon="1.79255">
        <ele>271</ele>
        <time>2026-05-25T09:50:09Z</time>
      </trkpt>
      <trkpt lat="44.81849" lon="1.79256">
        <ele>271</ele>
        <time>2026-05-25T09:50:11Z</time>
      </trkpt>
      <trkpt lat="44.81847" lon="1.79258">
        <ele>270.4</ele>
        <time>2026-05-25T09:50:13Z</time>
      </trkpt>
      <trkpt lat="44.81847" lon="1.79259">
        <ele>270.4</ele>
        <time>2026-05-25T09:50:14Z</time>
      </trkpt>
      <trkpt lat="44.81846" lon="1.79259">
        <ele>270.4</ele>
        <time>2026-05-25T09:50:15Z</time>
      </trkpt>
      <trkpt lat="44.81845" lon="1.7926">
        <ele>270.8</ele>
        <time>2026-05-25T09:50:16Z</time>
      </trkpt>
      <trkpt lat="44.81845" lon="1.79261">
        <ele>271.2</ele>
        <time>2026-05-25T09:50:18Z</time>
      </trkpt>
      <trkpt lat="44.81843" lon="1.79263">
        <ele>271.2</ele>
        <time>2026-05-25T09:50:20Z</time>
      </trkpt>
      <trkpt lat="44.81841" lon="1.79264">
        <ele>271.2</ele>
        <time>2026-05-25T09:50:21Z</time>
      </trkpt>
      <trkpt lat="44.81841" lon="1.79265">
        <ele>271.2</ele>
        <time>2026-05-25T09:50:22Z</time>
      </trkpt>
      <trkpt lat="44.8184" lon="1.79267">
        <ele>271.2</ele>
        <time>2026-05-25T09:50:23Z</time>
      </trkpt>
      <trkpt lat="44.81838" lon="1.79269">
        <ele>271.2</ele>
        <time>2026-05-25T09:50:25Z</time>
      </trkpt>
      <trkpt lat="44.81838" lon="1.7927">
        <ele>271.2</ele>
        <time>2026-05-25T09:50:29Z</time>
      </trkpt>
      <trkpt lat="44.81835" lon="1.79274">
        <ele>271.2</ele>
        <time>2026-05-25T09:50:30Z</time>
      </trkpt>
      <trkpt lat="44.81835" lon="1.79275">
        <ele>271.2</ele>
        <time>2026-05-25T09:50:32Z</time>
      </trkpt>
      <trkpt lat="44.81834" lon="1.79278">
        <ele>271.6</ele>
        <time>2026-05-25T09:50:34Z</time>
      </trkpt>
      <trkpt lat="44.81831" lon="1.79281">
        <ele>270.8</ele>
        <time>2026-05-25T09:50:37Z</time>
      </trkpt>
      <trkpt lat="44.81831" lon="1.79284">
        <ele>270.8</ele>
        <time>2026-05-25T09:50:39Z</time>
      </trkpt>
      <trkpt lat="44.8183" lon="1.79286">
        <ele>270.8</ele>
        <time>2026-05-25T09:50:40Z</time>
      </trkpt>
      <trkpt lat="44.81831" lon="1.79287">
        <ele>267</ele>
        <time>2026-05-25T09:50:41Z</time>
      </trkpt>
      <trkpt lat="44.81831" lon="1.79289">
        <ele>267</ele>
        <time>2026-05-25T09:50:43Z</time>
      </trkpt>
      <trkpt lat="44.81832" lon="1.79291">
        <ele>268</ele>
        <time>2026-05-25T09:50:44Z</time>
      </trkpt>
      <trkpt lat="44.81833" lon="1.79294">
        <ele>271.8</ele>
        <time>2026-05-25T09:50:45Z</time>
      </trkpt>
      <trkpt lat="44.81834" lon="1.79296">
        <ele>271.8</ele>
        <time>2026-05-25T09:50:46Z</time>
      </trkpt>
      <trkpt lat="44.81834" lon="1.79297">
        <ele>271.8</ele>
        <time>2026-05-25T09:50:47Z</time>
      </trkpt>
      <trkpt lat="44.81835" lon="1.79299">
        <ele>271.2</ele>
        <time>2026-05-25T09:50:48Z</time>
      </trkpt>
      <trkpt lat="44.81837" lon="1.793">
        <ele>271.2</ele>
        <time>2026-05-25T09:50:49Z</time>
      </trkpt>
      <trkpt lat="44.81838" lon="1.79301">
        <ele>271.2</ele>
        <time>2026-05-25T09:50:50Z</time>
      </trkpt>
      <trkpt lat="44.81838" lon="1.79302">
        <ele>271.2</ele>
        <time>2026-05-25T09:50:51Z</time>
      </trkpt>
      <trkpt lat="44.81839" lon="1.79303">
        <ele>271.2</ele>
        <time>2026-05-25T09:50:52Z</time>
      </trkpt>
      <trkpt lat="44.81839" lon="1.79304">
        <ele>271.8</ele>
        <time>2026-05-25T09:50:53Z</time>
      </trkpt>
      <trkpt lat="44.81841" lon="1.79306">
        <ele>271.8</ele>
        <time>2026-05-25T09:50:55Z</time>
      </trkpt>
      <trkpt lat="44.81841" lon="1.79307">
        <ele>271.2</ele>
        <time>2026-05-25T09:50:56Z</time>
      </trkpt>
      <trkpt lat="44.81842" lon="1.79307">
        <ele>271.2</ele>
        <time>2026-05-25T09:50:58Z</time>
      </trkpt>
      <trkpt lat="44.81843" lon="1.7931">
        <ele>271.2</ele>
        <time>2026-05-25T09:50:59Z</time>
      </trkpt>
      <trkpt lat="44.81844" lon="1.7931">
        <ele>271.2</ele>
        <time>2026-05-25T09:51:00Z</time>
      </trkpt>
      <trkpt lat="44.81844" lon="1.79311">
        <ele>270.6</ele>
        <time>2026-05-25T09:51:01Z</time>
      </trkpt>
      <trkpt lat="44.81846" lon="1.79313">
        <ele>270.6</ele>
        <time>2026-05-25T09:51:03Z</time>
      </trkpt>
      <trkpt lat="44.81848" lon="1.79316">
        <ele>270.2</ele>
        <time>2026-05-25T09:51:05Z</time>
      </trkpt>
      <trkpt lat="44.81849" lon="1.79316">
        <ele>270.2</ele>
        <time>2026-05-25T09:51:07Z</time>
      </trkpt>
      <trkpt lat="44.81855" lon="1.79322">
        <ele>272</ele>
        <time>2026-05-25T09:51:15Z</time>
      </trkpt>
      <trkpt lat="44.81856" lon="1.79324">
        <ele>272</ele>
        <time>2026-05-25T09:51:16Z</time>
      </trkpt>
      <trkpt lat="44.81857" lon="1.79324">
        <ele>269.4</ele>
        <time>2026-05-25T09:51:17Z</time>
      </trkpt>
      <trkpt lat="44.81858" lon="1.79325">
        <ele>269.4</ele>
        <time>2026-05-25T09:51:18Z</time>
      </trkpt>
      <trkpt lat="44.81859" lon="1.79325">
        <ele>269.4</ele>
        <time>2026-05-25T09:51:19Z</time>
      </trkpt>
      <trkpt lat="44.81861" lon="1.79326">
        <ele>270.4</ele>
        <time>2026-05-25T09:51:20Z</time>
      </trkpt>
      <trkpt lat="44.81861" lon="1.79327">
        <ele>270.4</ele>
        <time>2026-05-25T09:51:21Z</time>
      </trkpt>
      <trkpt lat="44.81863" lon="1.79331">
        <ele>270.4</ele>
        <time>2026-05-25T09:51:23Z</time>
      </trkpt>
      <trkpt lat="44.81864" lon="1.79331">
        <ele>271.4</ele>
        <time>2026-05-25T09:51:24Z</time>
      </trkpt>
      <trkpt lat="44.81867" lon="1.79334">
        <ele>271.2</ele>
        <time>2026-05-25T09:51:27Z</time>
      </trkpt>
      <trkpt lat="44.8187" lon="1.7934">
        <ele>271</ele>
        <time>2026-05-25T09:51:29Z</time>
      </trkpt>
      <trkpt lat="44.81873" lon="1.79343">
        <ele>271.4</ele>
        <time>2026-05-25T09:51:32Z</time>
      </trkpt>
      <trkpt lat="44.81874" lon="1.79343">
        <ele>272.2</ele>
        <time>2026-05-25T09:51:33Z</time>
      </trkpt>
      <trkpt lat="44.81875" lon="1.79344">
        <ele>272.2</ele>
        <time>2026-05-25T09:51:35Z</time>
      </trkpt>
      <trkpt lat="44.81876" lon="1.79344">
        <ele>272</ele>
        <time>2026-05-25T09:51:36Z</time>
      </trkpt>
      <trkpt lat="44.81878" lon="1.79346">
        <ele>270.8</ele>
        <time>2026-05-25T09:51:38Z</time>
      </trkpt>
      <trkpt lat="44.81879" lon="1.79346">
        <ele>270.8</ele>
        <time>2026-05-25T09:51:39Z</time>
      </trkpt>
      <trkpt lat="44.81881" lon="1.79348">
        <ele>272.6</ele>
        <time>2026-05-25T09:51:41Z</time>
      </trkpt>
      <trkpt lat="44.81882" lon="1.7935">
        <ele>272.6</ele>
        <time>2026-05-25T09:51:42Z</time>
      </trkpt>
      <trkpt lat="44.81883" lon="1.79351">
        <ele>272.6</ele>
        <time>2026-05-25T09:51:43Z</time>
      </trkpt>
      <trkpt lat="44.81883" lon="1.79355">
        <ele>272</ele>
        <time>2026-05-25T09:51:51Z</time>
      </trkpt>
      <trkpt lat="44.81884" lon="1.79355">
        <ele>272.8</ele>
        <time>2026-05-25T09:51:55Z</time>
      </trkpt>
      <trkpt lat="44.81884" lon="1.79356">
        <ele>272.6</ele>
        <time>2026-05-25T09:51:57Z</time>
      </trkpt>
      <trkpt lat="44.81883" lon="1.79358">
        <ele>272.6</ele>
        <time>2026-05-25T09:51:58Z</time>
      </trkpt>
      <trkpt lat="44.81883" lon="1.7936">
        <ele>272.6</ele>
        <time>2026-05-25T09:52:00Z</time>
      </trkpt>
      <trkpt lat="44.81882" lon="1.79361">
        <ele>272.4</ele>
        <time>2026-05-25T09:52:01Z</time>
      </trkpt>
      <trkpt lat="44.81882" lon="1.79362">
        <ele>272.4</ele>
        <time>2026-05-25T09:52:02Z</time>
      </trkpt>
      <trkpt lat="44.81883" lon="1.79363">
        <ele>272.4</ele>
        <time>2026-05-25T09:52:04Z</time>
      </trkpt>
      <trkpt lat="44.81882" lon="1.79365">
        <ele>272.6</ele>
        <time>2026-05-25T09:52:06Z</time>
      </trkpt>
      <trkpt lat="44.8188" lon="1.79367">
        <ele>272.6</ele>
        <time>2026-05-25T09:52:08Z</time>
      </trkpt>
      <trkpt lat="44.81879" lon="1.79369">
        <ele>271.8</ele>
        <time>2026-05-25T09:52:10Z</time>
      </trkpt>
      <trkpt lat="44.81879" lon="1.79374">
        <ele>272.2</ele>
        <time>2026-05-25T09:52:14Z</time>
      </trkpt>
      <trkpt lat="44.81878" lon="1.79376">
        <ele>272.2</ele>
        <time>2026-05-25T09:52:15Z</time>
      </trkpt>
      <trkpt lat="44.81878" lon="1.79377">
        <ele>272.8</ele>
        <time>2026-05-25T09:52:16Z</time>
      </trkpt>
      <trkpt lat="44.81877" lon="1.79378">
        <ele>273.8</ele>
        <time>2026-05-25T09:52:17Z</time>
      </trkpt>
      <trkpt lat="44.81877" lon="1.79379">
        <ele>273.8</ele>
        <time>2026-05-25T09:52:18Z</time>
      </trkpt>
      <trkpt lat="44.81876" lon="1.7938">
        <ele>273.8</ele>
        <time>2026-05-25T09:52:19Z</time>
      </trkpt>
      <trkpt lat="44.81876" lon="1.79381">
        <ele>273.8</ele>
        <time>2026-05-25T09:52:20Z</time>
      </trkpt>
      <trkpt lat="44.81875" lon="1.79381">
        <ele>273.2</ele>
        <time>2026-05-25T09:52:24Z</time>
      </trkpt>
      <trkpt lat="44.81874" lon="1.79384">
        <ele>273.6</ele>
        <time>2026-05-25T09:52:25Z</time>
      </trkpt>
      <trkpt lat="44.81873" lon="1.79385">
        <ele>273.8</ele>
        <time>2026-05-25T09:52:29Z</time>
      </trkpt>
      <trkpt lat="44.8187" lon="1.7939">
        <ele>273.8</ele>
        <time>2026-05-25T09:52:32Z</time>
      </trkpt>
      <trkpt lat="44.81869" lon="1.79392">
        <ele>274.4</ele>
        <time>2026-05-25T09:52:33Z</time>
      </trkpt>
      <trkpt lat="44.81869" lon="1.79393">
        <ele>274.4</ele>
        <time>2026-05-25T09:52:34Z</time>
      </trkpt>
      <trkpt lat="44.81868" lon="1.79395">
        <ele>274.4</ele>
        <time>2026-05-25T09:52:35Z</time>
      </trkpt>
      <trkpt lat="44.81867" lon="1.79396">
        <ele>273.8</ele>
        <time>2026-05-25T09:52:36Z</time>
      </trkpt>
      <trkpt lat="44.81867" lon="1.79397">
        <ele>273.8</ele>
        <time>2026-05-25T09:52:37Z</time>
      </trkpt>
      <trkpt lat="44.81866" lon="1.79398">
        <ele>273.8</ele>
        <time>2026-05-25T09:52:38Z</time>
      </trkpt>
      <trkpt lat="44.81866" lon="1.79399">
        <ele>274.6</ele>
        <time>2026-05-25T09:52:42Z</time>
      </trkpt>
      <trkpt lat="44.81864" lon="1.79402">
        <ele>274.6</ele>
        <time>2026-05-25T09:52:43Z</time>
      </trkpt>
      <trkpt lat="44.81864" lon="1.79403">
        <ele>273.6</ele>
        <time>2026-05-25T09:52:45Z</time>
      </trkpt>
      <trkpt lat="44.81862" lon="1.79405">
        <ele>273.6</ele>
        <time>2026-05-25T09:52:47Z</time>
      </trkpt>
      <trkpt lat="44.81861" lon="1.79407">
        <ele>276.2</ele>
        <time>2026-05-25T09:52:49Z</time>
      </trkpt>
      <trkpt lat="44.81856" lon="1.79412">
        <ele>275.8</ele>
        <time>2026-05-25T09:52:54Z</time>
      </trkpt>
      <trkpt lat="44.81856" lon="1.79413">
        <ele>275.8</ele>
        <time>2026-05-25T09:52:55Z</time>
      </trkpt>
      <trkpt lat="44.81854" lon="1.79415">
        <ele>275.8</ele>
        <time>2026-05-25T09:52:57Z</time>
      </trkpt>
      <trkpt lat="44.81854" lon="1.79416">
        <ele>275.8</ele>
        <time>2026-05-25T09:52:58Z</time>
      </trkpt>
      <trkpt lat="44.81853" lon="1.79417">
        <ele>275.8</ele>
        <time>2026-05-25T09:52:59Z</time>
      </trkpt>
      <trkpt lat="44.81852" lon="1.79419">
        <ele>276.6</ele>
        <time>2026-05-25T09:53:01Z</time>
      </trkpt>
      <trkpt lat="44.81849" lon="1.79422">
        <ele>276.6</ele>
        <time>2026-05-25T09:53:04Z</time>
      </trkpt>
      <trkpt lat="44.81848" lon="1.79424">
        <ele>277.8</ele>
        <time>2026-05-25T09:53:06Z</time>
      </trkpt>
      <trkpt lat="44.81847" lon="1.79425">
        <ele>277.8</ele>
        <time>2026-05-25T09:53:07Z</time>
      </trkpt>
      <trkpt lat="44.81846" lon="1.79427">
        <ele>277.4</ele>
        <time>2026-05-25T09:53:08Z</time>
      </trkpt>
      <trkpt lat="44.81845" lon="1.79428">
        <ele>277.4</ele>
        <time>2026-05-25T09:53:09Z</time>
      </trkpt>
      <trkpt lat="44.81845" lon="1.79432">
        <ele>277.4</ele>
        <time>2026-05-25T09:53:11Z</time>
      </trkpt>
      <trkpt lat="44.81844" lon="1.79433">
        <ele>278</ele>
        <time>2026-05-25T09:53:12Z</time>
      </trkpt>
      <trkpt lat="44.81845" lon="1.79434">
        <ele>278.4</ele>
        <time>2026-05-25T09:53:13Z</time>
      </trkpt>
      <trkpt lat="44.81845" lon="1.79439">
        <ele>278.8</ele>
        <time>2026-05-25T09:53:19Z</time>
      </trkpt>
      <trkpt lat="44.81846" lon="1.7944">
        <ele>278.8</ele>
        <time>2026-05-25T09:53:20Z</time>
      </trkpt>
      <trkpt lat="44.81846" lon="1.79441">
        <ele>280</ele>
        <time>2026-05-25T09:53:21Z</time>
      </trkpt>
      <trkpt lat="44.81847" lon="1.79442">
        <ele>280</ele>
        <time>2026-05-25T09:53:22Z</time>
      </trkpt>
      <trkpt lat="44.81847" lon="1.79443">
        <ele>280</ele>
        <time>2026-05-25T09:53:23Z</time>
      </trkpt>
      <trkpt lat="44.81848" lon="1.79444">
        <ele>280</ele>
        <time>2026-05-25T09:53:24Z</time>
      </trkpt>
      <trkpt lat="44.81849" lon="1.79446">
        <ele>280</ele>
        <time>2026-05-25T09:53:25Z</time>
      </trkpt>
      <trkpt lat="44.8185" lon="1.79447">
        <ele>280</ele>
        <time>2026-05-25T09:53:26Z</time>
      </trkpt>
      <trkpt lat="44.8185" lon="1.79448">
        <ele>280</ele>
        <time>2026-05-25T09:53:27Z</time>
      </trkpt>
      <trkpt lat="44.81852" lon="1.7945">
        <ele>280.6</ele>
        <time>2026-05-25T09:53:29Z</time>
      </trkpt>
      <trkpt lat="44.81852" lon="1.79452">
        <ele>280.6</ele>
        <time>2026-05-25T09:53:31Z</time>
      </trkpt>
      <trkpt lat="44.81853" lon="1.79453">
        <ele>280.6</ele>
        <time>2026-05-25T09:53:32Z</time>
      </trkpt>
      <trkpt lat="44.81853" lon="1.79455">
        <ele>281.2</ele>
        <time>2026-05-25T09:53:34Z</time>
      </trkpt>
      <trkpt lat="44.81854" lon="1.79455">
        <ele>281.2</ele>
        <time>2026-05-25T09:53:35Z</time>
      </trkpt>
      <trkpt lat="44.81854" lon="1.79456">
        <ele>281.2</ele>
        <time>2026-05-25T09:53:36Z</time>
      </trkpt>
      <trkpt lat="44.81855" lon="1.79457">
        <ele>281.8</ele>
        <time>2026-05-25T09:53:37Z</time>
      </trkpt>
      <trkpt lat="44.81855" lon="1.79458">
        <ele>281.8</ele>
        <time>2026-05-25T09:53:38Z</time>
      </trkpt>
      <trkpt lat="44.81856" lon="1.79459">
        <ele>281.8</ele>
        <time>2026-05-25T09:53:39Z</time>
      </trkpt>
      <trkpt lat="44.81856" lon="1.7946">
        <ele>281.8</ele>
        <time>2026-05-25T09:53:40Z</time>
      </trkpt>
      <trkpt lat="44.81857" lon="1.79461">
        <ele>282.4</ele>
        <time>2026-05-25T09:53:41Z</time>
      </trkpt>
      <trkpt lat="44.81857" lon="1.79462">
        <ele>282.4</ele>
        <time>2026-05-25T09:53:42Z</time>
      </trkpt>
      <trkpt lat="44.81858" lon="1.79463">
        <ele>282.4</ele>
        <time>2026-05-25T09:53:43Z</time>
      </trkpt>
      <trkpt lat="44.81858" lon="1.79464">
        <ele>282.8</ele>
        <time>2026-05-25T09:53:44Z</time>
      </trkpt>
      <trkpt lat="44.81859" lon="1.79465">
        <ele>282.8</ele>
        <time>2026-05-25T09:53:45Z</time>
      </trkpt>
      <trkpt lat="44.81859" lon="1.79472">
        <ele>283</ele>
        <time>2026-05-25T09:53:51Z</time>
      </trkpt>
      <trkpt lat="44.8186" lon="1.79473">
        <ele>283.2</ele>
        <time>2026-05-25T09:53:52Z</time>
      </trkpt>
      <trkpt lat="44.8186" lon="1.79476">
        <ele>283.4</ele>
        <time>2026-05-25T09:53:56Z</time>
      </trkpt>
      <trkpt lat="44.81861" lon="1.79477">
        <ele>284.6</ele>
        <time>2026-05-25T09:53:57Z</time>
      </trkpt>
      <trkpt lat="44.81861" lon="1.79479">
        <ele>284.6</ele>
        <time>2026-05-25T09:53:59Z</time>
      </trkpt>
      <trkpt lat="44.81865" lon="1.79483">
        <ele>285</ele>
        <time>2026-05-25T09:54:05Z</time>
      </trkpt>
      <trkpt lat="44.81865" lon="1.79484">
        <ele>285</ele>
        <time>2026-05-25T09:54:06Z</time>
      </trkpt>
      <trkpt lat="44.81866" lon="1.79484">
        <ele>284.6</ele>
        <time>2026-05-25T09:54:08Z</time>
      </trkpt>
      <trkpt lat="44.81867" lon="1.79486">
        <ele>284.8</ele>
        <time>2026-05-25T09:54:09Z</time>
      </trkpt>
      <trkpt lat="44.81867" lon="1.79487">
        <ele>284.8</ele>
        <time>2026-05-25T09:54:10Z</time>
      </trkpt>
      <trkpt lat="44.81868" lon="1.79488">
        <ele>284.8</ele>
        <time>2026-05-25T09:54:11Z</time>
      </trkpt>
      <trkpt lat="44.81868" lon="1.79489">
        <ele>284.8</ele>
        <time>2026-05-25T09:54:12Z</time>
      </trkpt>
      <trkpt lat="44.81869" lon="1.79491">
        <ele>284.4</ele>
        <time>2026-05-25T09:54:13Z</time>
      </trkpt>
      <trkpt lat="44.81872" lon="1.79494">
        <ele>285.2</ele>
        <time>2026-05-25T09:54:16Z</time>
      </trkpt>
      <trkpt lat="44.81872" lon="1.79497">
        <ele>285.4</ele>
        <time>2026-05-25T09:54:18Z</time>
      </trkpt>
      <trkpt lat="44.81873" lon="1.79498">
        <ele>285.4</ele>
        <time>2026-05-25T09:54:19Z</time>
      </trkpt>
      <trkpt lat="44.81873" lon="1.79499">
        <ele>285.4</ele>
        <time>2026-05-25T09:54:20Z</time>
      </trkpt>
      <trkpt lat="44.81874" lon="1.795">
        <ele>285.8</ele>
        <time>2026-05-25T09:54:21Z</time>
      </trkpt>
      <trkpt lat="44.81874" lon="1.79501">
        <ele>285.8</ele>
        <time>2026-05-25T09:54:22Z</time>
      </trkpt>
      <trkpt lat="44.81877" lon="1.79504">
        <ele>286</ele>
        <time>2026-05-25T09:54:25Z</time>
      </trkpt>
      <trkpt lat="44.81877" lon="1.79505">
        <ele>286.6</ele>
        <time>2026-05-25T09:55:29Z</time>
      </trkpt>
      <trkpt lat="44.81879" lon="1.79507">
        <ele>287</ele>
        <time>2026-05-25T09:55:42Z</time>
      </trkpt>
      <trkpt lat="44.81879" lon="1.79518">
        <ele>287.8</ele>
        <time>2026-05-25T09:55:53Z</time>
      </trkpt>
      <trkpt lat="44.8188" lon="1.79518">
        <ele>287.8</ele>
        <time>2026-05-25T09:55:54Z</time>
      </trkpt>
      <trkpt lat="44.8188" lon="1.79525">
        <ele>287.8</ele>
        <time>2026-05-25T09:56:00Z</time>
      </trkpt>
      <trkpt lat="44.81881" lon="1.79526">
        <ele>288.2</ele>
        <time>2026-05-25T09:56:02Z</time>
      </trkpt>
      <trkpt lat="44.81881" lon="1.79527">
        <ele>288.2</ele>
        <time>2026-05-25T09:56:03Z</time>
      </trkpt>
      <trkpt lat="44.81882" lon="1.79528">
        <ele>288.2</ele>
        <time>2026-05-25T09:56:04Z</time>
      </trkpt>
      <trkpt lat="44.81882" lon="1.79529">
        <ele>288.6</ele>
        <time>2026-05-25T09:56:05Z</time>
      </trkpt>
      <trkpt lat="44.81883" lon="1.7953">
        <ele>288.6</ele>
        <time>2026-05-25T09:56:06Z</time>
      </trkpt>
      <trkpt lat="44.81883" lon="1.79534">
        <ele>289</ele>
        <time>2026-05-25T09:56:10Z</time>
      </trkpt>
      <trkpt lat="44.81885" lon="1.79536">
        <ele>288</ele>
        <time>2026-05-25T09:56:12Z</time>
      </trkpt>
      <trkpt lat="44.81886" lon="1.79538">
        <ele>288.8</ele>
        <time>2026-05-25T09:56:13Z</time>
      </trkpt>
      <trkpt lat="44.81887" lon="1.79539">
        <ele>288.8</ele>
        <time>2026-05-25T09:56:14Z</time>
      </trkpt>
      <trkpt lat="44.81887" lon="1.79541">
        <ele>288.8</ele>
        <time>2026-05-25T09:56:15Z</time>
      </trkpt>
      <trkpt lat="44.81888" lon="1.79543">
        <ele>288.8</ele>
        <time>2026-05-25T09:56:16Z</time>
      </trkpt>
      <trkpt lat="44.81888" lon="1.79544">
        <ele>286.2</ele>
        <time>2026-05-25T09:56:17Z</time>
      </trkpt>
      <trkpt lat="44.81889" lon="1.79545">
        <ele>286.2</ele>
        <time>2026-05-25T09:56:18Z</time>
      </trkpt>
      <trkpt lat="44.8189" lon="1.79547">
        <ele>286.2</ele>
        <time>2026-05-25T09:56:19Z</time>
      </trkpt>
      <trkpt lat="44.8189" lon="1.79558">
        <ele>288.8</ele>
        <time>2026-05-25T09:56:28Z</time>
      </trkpt>
      <trkpt lat="44.81893" lon="1.79564">
        <ele>288.6</ele>
        <time>2026-05-25T09:56:31Z</time>
      </trkpt>
      <trkpt lat="44.81893" lon="1.79565">
        <ele>288.6</ele>
        <time>2026-05-25T09:56:32Z</time>
      </trkpt>
      <trkpt lat="44.81895" lon="1.79569">
        <ele>288.2</ele>
        <time>2026-05-25T09:56:34Z</time>
      </trkpt>
      <trkpt lat="44.81896" lon="1.7957">
        <ele>288.2</ele>
        <time>2026-05-25T09:56:35Z</time>
      </trkpt>
      <trkpt lat="44.81897" lon="1.79572">
        <ele>288</ele>
        <time>2026-05-25T09:56:36Z</time>
      </trkpt>
      <trkpt lat="44.81897" lon="1.79586">
        <ele>287.8</ele>
        <time>2026-05-25T09:56:46Z</time>
      </trkpt>
      <trkpt lat="44.81896" lon="1.79587">
        <ele>287.8</ele>
        <time>2026-05-25T09:56:47Z</time>
      </trkpt>
      <trkpt lat="44.81896" lon="1.79602">
        <ele>288.8</ele>
        <time>2026-05-25T09:56:56Z</time>
      </trkpt>
      <trkpt lat="44.81897" lon="1.79603">
        <ele>289.4</ele>
        <time>2026-05-25T09:56:57Z</time>
      </trkpt>
      <trkpt lat="44.81897" lon="1.79612">
        <ele>289.8</ele>
        <time>2026-05-25T09:57:03Z</time>
      </trkpt>
      <trkpt lat="44.81898" lon="1.79613">
        <ele>289.8</ele>
        <time>2026-05-25T09:57:04Z</time>
      </trkpt>
      <trkpt lat="44.81898" lon="1.79622">
        <ele>289.6</ele>
        <time>2026-05-25T09:57:11Z</time>
      </trkpt>
      <trkpt lat="44.81899" lon="1.79624">
        <ele>290.6</ele>
        <time>2026-05-25T09:57:12Z</time>
      </trkpt>
      <trkpt lat="44.81899" lon="1.79633">
        <ele>290.8</ele>
        <time>2026-05-25T09:57:20Z</time>
      </trkpt>
      <trkpt lat="44.819" lon="1.79635">
        <ele>290.4</ele>
        <time>2026-05-25T09:57:21Z</time>
      </trkpt>
      <trkpt lat="44.819" lon="1.79638">
        <ele>290.4</ele>
        <time>2026-05-25T09:57:23Z</time>
      </trkpt>
      <trkpt lat="44.81901" lon="1.79639">
        <ele>291</ele>
        <time>2026-05-25T09:57:24Z</time>
      </trkpt>
      <trkpt lat="44.81901" lon="1.79641">
        <ele>291</ele>
        <time>2026-05-25T09:57:25Z</time>
      </trkpt>
      <trkpt lat="44.81902" lon="1.79642">
        <ele>291</ele>
        <time>2026-05-25T09:57:26Z</time>
      </trkpt>
      <trkpt lat="44.81904" lon="1.79643">
        <ele>291</ele>
        <time>2026-05-25T09:57:27Z</time>
      </trkpt>
      <trkpt lat="44.81904" lon="1.79644">
        <ele>290.8</ele>
        <time>2026-05-25T09:57:43Z</time>
      </trkpt>
      <trkpt lat="44.81902" lon="1.79652">
        <ele>290.4</ele>
        <time>2026-05-25T09:57:59Z</time>
      </trkpt>
      <trkpt lat="44.81902" lon="1.79653">
        <ele>290</ele>
        <time>2026-05-25T09:58:01Z</time>
      </trkpt>
      <trkpt lat="44.81903" lon="1.79654">
        <ele>290</ele>
        <time>2026-05-25T09:58:02Z</time>
      </trkpt>
      <trkpt lat="44.81903" lon="1.79658">
        <ele>290.4</ele>
        <time>2026-05-25T09:58:07Z</time>
      </trkpt>
      <trkpt lat="44.81904" lon="1.79659">
        <ele>290</ele>
        <time>2026-05-25T09:58:09Z</time>
      </trkpt>
      <trkpt lat="44.81904" lon="1.79662">
        <ele>290</ele>
        <time>2026-05-25T09:58:11Z</time>
      </trkpt>
      <trkpt lat="44.81905" lon="1.79663">
        <ele>289.6</ele>
        <time>2026-05-25T09:58:12Z</time>
      </trkpt>
      <trkpt lat="44.81905" lon="1.79666">
        <ele>289.2</ele>
        <time>2026-05-25T09:58:14Z</time>
      </trkpt>
      <trkpt lat="44.81906" lon="1.79667">
        <ele>289.2</ele>
        <time>2026-05-25T09:58:15Z</time>
      </trkpt>
      <trkpt lat="44.81906" lon="1.7967">
        <ele>288.2</ele>
        <time>2026-05-25T09:58:18Z</time>
      </trkpt>
      <trkpt lat="44.81907" lon="1.79671">
        <ele>288.2</ele>
        <time>2026-05-25T09:58:19Z</time>
      </trkpt>
      <trkpt lat="44.81907" lon="1.79682">
        <ele>287</ele>
        <time>2026-05-25T09:58:28Z</time>
      </trkpt>
      <trkpt lat="44.81906" lon="1.79683">
        <ele>287.2</ele>
        <time>2026-05-25T09:58:29Z</time>
      </trkpt>
      <trkpt lat="44.81906" lon="1.79684">
        <ele>287.2</ele>
        <time>2026-05-25T09:58:30Z</time>
      </trkpt>
      <trkpt lat="44.81905" lon="1.79686">
        <ele>287.2</ele>
        <time>2026-05-25T09:58:31Z</time>
      </trkpt>
      <trkpt lat="44.81905" lon="1.79689">
        <ele>287</ele>
        <time>2026-05-25T09:58:34Z</time>
      </trkpt>
      <trkpt lat="44.81904" lon="1.7969">
        <ele>287</ele>
        <time>2026-05-25T09:58:35Z</time>
      </trkpt>
      <trkpt lat="44.81904" lon="1.79697">
        <ele>285.6</ele>
        <time>2026-05-25T09:58:40Z</time>
      </trkpt>
      <trkpt lat="44.81903" lon="1.79698">
        <ele>285.6</ele>
        <time>2026-05-25T09:58:41Z</time>
      </trkpt>
      <trkpt lat="44.81903" lon="1.79704">
        <ele>285.2</ele>
        <time>2026-05-25T09:58:46Z</time>
      </trkpt>
      <trkpt lat="44.81902" lon="1.79706">
        <ele>285.2</ele>
        <time>2026-05-25T09:58:47Z</time>
      </trkpt>
      <trkpt lat="44.81903" lon="1.79707">
        <ele>285.2</ele>
        <time>2026-05-25T09:58:48Z</time>
      </trkpt>
      <trkpt lat="44.81902" lon="1.79708">
        <ele>284.2</ele>
        <time>2026-05-25T09:58:50Z</time>
      </trkpt>
      <trkpt lat="44.81902" lon="1.7971">
        <ele>284.2</ele>
        <time>2026-05-25T09:58:51Z</time>
      </trkpt>
      <trkpt lat="44.81901" lon="1.79711">
        <ele>284.2</ele>
        <time>2026-05-25T09:58:52Z</time>
      </trkpt>
      <trkpt lat="44.81901" lon="1.79713">
        <ele>283.8</ele>
        <time>2026-05-25T09:58:53Z</time>
      </trkpt>
      <trkpt lat="44.819" lon="1.79714">
        <ele>283.8</ele>
        <time>2026-05-25T09:58:54Z</time>
      </trkpt>
      <trkpt lat="44.819" lon="1.79715">
        <ele>283.8</ele>
        <time>2026-05-25T09:58:55Z</time>
      </trkpt>
      <trkpt lat="44.81899" lon="1.79716">
        <ele>283.8</ele>
        <time>2026-05-25T09:58:56Z</time>
      </trkpt>
      <trkpt lat="44.81899" lon="1.79717">
        <ele>283.4</ele>
        <time>2026-05-25T09:58:57Z</time>
      </trkpt>
      <trkpt lat="44.81898" lon="1.79718">
        <ele>283.4</ele>
        <time>2026-05-25T09:58:58Z</time>
      </trkpt>
      <trkpt lat="44.81898" lon="1.79721">
        <ele>283.8</ele>
        <time>2026-05-25T09:59:00Z</time>
      </trkpt>
      <trkpt lat="44.81897" lon="1.79723">
        <ele>283.4</ele>
        <time>2026-05-25T09:59:01Z</time>
      </trkpt>
      <trkpt lat="44.81897" lon="1.79725">
        <ele>283.4</ele>
        <time>2026-05-25T09:59:02Z</time>
      </trkpt>
      <trkpt lat="44.81896" lon="1.79726">
        <ele>283.4</ele>
        <time>2026-05-25T09:59:03Z</time>
      </trkpt>
      <trkpt lat="44.81896" lon="1.79731">
        <ele>283.2</ele>
        <time>2026-05-25T09:59:05Z</time>
      </trkpt>
      <trkpt lat="44.81895" lon="1.79732">
        <ele>283.2</ele>
        <time>2026-05-25T09:59:06Z</time>
      </trkpt>
      <trkpt lat="44.81895" lon="1.79735">
        <ele>283.2</ele>
        <time>2026-05-25T09:59:08Z</time>
      </trkpt>
      <trkpt lat="44.81896" lon="1.79737">
        <ele>283.2</ele>
        <time>2026-05-25T09:59:09Z</time>
      </trkpt>
      <trkpt lat="44.81896" lon="1.79738">
        <ele>283.2</ele>
        <time>2026-05-25T09:59:10Z</time>
      </trkpt>
      <trkpt lat="44.81895" lon="1.79739">
        <ele>283.2</ele>
        <time>2026-05-25T09:59:11Z</time>
      </trkpt>
      <trkpt lat="44.81896" lon="1.7974">
        <ele>283.2</ele>
        <time>2026-05-25T09:59:12Z</time>
      </trkpt>
      <trkpt lat="44.81896" lon="1.79741">
        <ele>281.4</ele>
        <time>2026-05-25T09:59:13Z</time>
      </trkpt>
      <trkpt lat="44.81897" lon="1.79742">
        <ele>281.4</ele>
        <time>2026-05-25T09:59:14Z</time>
      </trkpt>
      <trkpt lat="44.81897" lon="1.79744">
        <ele>281.8</ele>
        <time>2026-05-25T09:59:16Z</time>
      </trkpt>
      <trkpt lat="44.81898" lon="1.79745">
        <ele>281.4</ele>
        <time>2026-05-25T09:59:18Z</time>
      </trkpt>
      <trkpt lat="44.81898" lon="1.79751">
        <ele>281</ele>
        <time>2026-05-25T09:59:26Z</time>
      </trkpt>
      <trkpt lat="44.81897" lon="1.79755">
        <ele>281.8</ele>
        <time>2026-05-25T09:59:29Z</time>
      </trkpt>
      <trkpt lat="44.81897" lon="1.79757">
        <ele>281.8</ele>
        <time>2026-05-25T09:59:33Z</time>
      </trkpt>
      <trkpt lat="44.81896" lon="1.79759">
        <ele>281.8</ele>
        <time>2026-05-25T09:59:34Z</time>
      </trkpt>
      <trkpt lat="44.81896" lon="1.79762">
        <ele>282.2</ele>
        <time>2026-05-25T09:59:36Z</time>
      </trkpt>
      <trkpt lat="44.81895" lon="1.79763">
        <ele>282.2</ele>
        <time>2026-05-25T09:59:37Z</time>
      </trkpt>
      <trkpt lat="44.81894" lon="1.79765">
        <ele>282.2</ele>
        <time>2026-05-25T09:59:38Z</time>
      </trkpt>
      <trkpt lat="44.81894" lon="1.79766">
        <ele>282.2</ele>
        <time>2026-05-25T09:59:39Z</time>
      </trkpt>
      <trkpt lat="44.81894" lon="1.79765">
        <ele>282.4</ele>
        <time>2026-05-25T09:59:40Z</time>
      </trkpt>
      <trkpt lat="44.81894" lon="1.79767">
        <ele>283</ele>
        <time>2026-05-25T09:59:41Z</time>
      </trkpt>
      <trkpt lat="44.81893" lon="1.79768">
        <ele>283</ele>
        <time>2026-05-25T09:59:43Z</time>
      </trkpt>
      <trkpt lat="44.81892" lon="1.7977">
        <ele>283.4</ele>
        <time>2026-05-25T09:59:45Z</time>
      </trkpt>
      <trkpt lat="44.81891" lon="1.79771">
        <ele>283.4</ele>
        <time>2026-05-25T09:59:46Z</time>
      </trkpt>
      <trkpt lat="44.81891" lon="1.79773">
        <ele>283.4</ele>
        <time>2026-05-25T09:59:47Z</time>
      </trkpt>
      <trkpt lat="44.81889" lon="1.79775">
        <ele>283.6</ele>
        <time>2026-05-25T09:59:49Z</time>
      </trkpt>
      <trkpt lat="44.81888" lon="1.79777">
        <ele>283.6</ele>
        <time>2026-05-25T09:59:51Z</time>
      </trkpt>
      <trkpt lat="44.81888" lon="1.79778">
        <ele>283.8</ele>
        <time>2026-05-25T09:59:53Z</time>
      </trkpt>
      <trkpt lat="44.81887" lon="1.79779">
        <ele>283.8</ele>
        <time>2026-05-25T09:59:54Z</time>
      </trkpt>
      <trkpt lat="44.81887" lon="1.7978">
        <ele>283.8</ele>
        <time>2026-05-25T09:59:55Z</time>
      </trkpt>
      <trkpt lat="44.81886" lon="1.79781">
        <ele>283.8</ele>
        <time>2026-05-25T09:59:56Z</time>
      </trkpt>
      <trkpt lat="44.81886" lon="1.79782">
        <ele>284.4</ele>
        <time>2026-05-25T09:59:57Z</time>
      </trkpt>
      <trkpt lat="44.81885" lon="1.79783">
        <ele>284.4</ele>
        <time>2026-05-25T09:59:58Z</time>
      </trkpt>
      <trkpt lat="44.81885" lon="1.79784">
        <ele>284.4</ele>
        <time>2026-05-25T09:59:59Z</time>
      </trkpt>
      <trkpt lat="44.81884" lon="1.79784">
        <ele>284.6</ele>
        <time>2026-05-25T10:00:01Z</time>
      </trkpt>
      <trkpt lat="44.81884" lon="1.79785">
        <ele>284.6</ele>
        <time>2026-05-25T10:00:02Z</time>
      </trkpt>
      <trkpt lat="44.81883" lon="1.79786">
        <ele>284.6</ele>
        <time>2026-05-25T10:00:03Z</time>
      </trkpt>
      <trkpt lat="44.81883" lon="1.79787">
        <ele>285</ele>
        <time>2026-05-25T10:00:05Z</time>
      </trkpt>
      <trkpt lat="44.81882" lon="1.79789">
        <ele>285</ele>
        <time>2026-05-25T10:00:06Z</time>
      </trkpt>
      <trkpt lat="44.8188" lon="1.79791">
        <ele>285.4</ele>
        <time>2026-05-25T10:00:09Z</time>
      </trkpt>
      <trkpt lat="44.8188" lon="1.79792">
        <ele>285.4</ele>
        <time>2026-05-25T10:00:10Z</time>
      </trkpt>
      <trkpt lat="44.81879" lon="1.79793">
        <ele>285.4</ele>
        <time>2026-05-25T10:00:11Z</time>
      </trkpt>
      <trkpt lat="44.81878" lon="1.79795">
        <ele>285.4</ele>
        <time>2026-05-25T10:00:12Z</time>
      </trkpt>
      <trkpt lat="44.81878" lon="1.79796">
        <ele>285.6</ele>
        <time>2026-05-25T10:00:13Z</time>
      </trkpt>
      <trkpt lat="44.81877" lon="1.79797">
        <ele>285.6</ele>
        <time>2026-05-25T10:00:14Z</time>
      </trkpt>
      <trkpt lat="44.81877" lon="1.79798">
        <ele>286.2</ele>
        <time>2026-05-25T10:00:18Z</time>
      </trkpt>
      <trkpt lat="44.81874" lon="1.79801">
        <ele>286.2</ele>
        <time>2026-05-25T10:00:20Z</time>
      </trkpt>
      <trkpt lat="44.81873" lon="1.79803">
        <ele>286</ele>
        <time>2026-05-25T10:00:21Z</time>
      </trkpt>
      <trkpt lat="44.81866" lon="1.7981">
        <ele>285.6</ele>
        <time>2026-05-25T10:00:28Z</time>
      </trkpt>
      <trkpt lat="44.81864" lon="1.79814">
        <ele>286.2</ele>
        <time>2026-05-25T10:00:31Z</time>
      </trkpt>
      <trkpt lat="44.81863" lon="1.79815">
        <ele>286.6</ele>
        <time>2026-05-25T10:00:33Z</time>
      </trkpt>
      <trkpt lat="44.81862" lon="1.79817">
        <ele>286.6</ele>
        <time>2026-05-25T10:00:34Z</time>
      </trkpt>
      <trkpt lat="44.81862" lon="1.79818">
        <ele>286.6</ele>
        <time>2026-05-25T10:00:35Z</time>
      </trkpt>
      <trkpt lat="44.81861" lon="1.79819">
        <ele>286.4</ele>
        <time>2026-05-25T10:00:36Z</time>
      </trkpt>
      <trkpt lat="44.8186" lon="1.79821">
        <ele>286.8</ele>
        <time>2026-05-25T10:00:37Z</time>
      </trkpt>
      <trkpt lat="44.8186" lon="1.79822">
        <ele>286.8</ele>
        <time>2026-05-25T10:00:38Z</time>
      </trkpt>
      <trkpt lat="44.81859" lon="1.79822">
        <ele>286.4</ele>
        <time>2026-05-25T10:00:54Z</time>
      </trkpt>
      <trkpt lat="44.81851" lon="1.79831">
        <ele>286.2</ele>
        <time>2026-05-25T10:01:06Z</time>
      </trkpt>
      <trkpt lat="44.81851" lon="1.79832">
        <ele>286.6</ele>
        <time>2026-05-25T10:01:08Z</time>
      </trkpt>
      <trkpt lat="44.8185" lon="1.79832">
        <ele>286.4</ele>
        <time>2026-05-25T10:01:09Z</time>
      </trkpt>
      <trkpt lat="44.8185" lon="1.79838">
        <ele>286.8</ele>
        <time>2026-05-25T10:01:19Z</time>
      </trkpt>
      <trkpt lat="44.81851" lon="1.7984">
        <ele>286.6</ele>
        <time>2026-05-25T10:01:21Z</time>
      </trkpt>
      <trkpt lat="44.81851" lon="1.79841">
        <ele>286.6</ele>
        <time>2026-05-25T10:01:22Z</time>
      </trkpt>
      <trkpt lat="44.81857" lon="1.79847">
        <ele>286.4</ele>
        <time>2026-05-25T10:01:28Z</time>
      </trkpt>
      <trkpt lat="44.81857" lon="1.79848">
        <ele>286.4</ele>
        <time>2026-05-25T10:01:29Z</time>
      </trkpt>
      <trkpt lat="44.81859" lon="1.7985">
        <ele>286.4</ele>
        <time>2026-05-25T10:01:31Z</time>
      </trkpt>
      <trkpt lat="44.81859" lon="1.79851">
        <ele>286.4</ele>
        <time>2026-05-25T10:01:32Z</time>
      </trkpt>
      <trkpt lat="44.81862" lon="1.79854">
        <ele>286.8</ele>
        <time>2026-05-25T10:01:35Z</time>
      </trkpt>
      <trkpt lat="44.81862" lon="1.79855">
        <ele>286.2</ele>
        <time>2026-05-25T10:01:36Z</time>
      </trkpt>
      <trkpt lat="44.81865" lon="1.79855">
        <ele>286.6</ele>
        <time>2026-05-25T10:01:39Z</time>
      </trkpt>
      <trkpt lat="44.81865" lon="1.79856">
        <ele>286.2</ele>
        <time>2026-05-25T10:01:40Z</time>
      </trkpt>
      <trkpt lat="44.81866" lon="1.79857">
        <ele>286.6</ele>
        <time>2026-05-25T10:01:41Z</time>
      </trkpt>
      <trkpt lat="44.81867" lon="1.79857">
        <ele>286.6</ele>
        <time>2026-05-25T10:01:42Z</time>
      </trkpt>
      <trkpt lat="44.8187" lon="1.7986">
        <ele>286</ele>
        <time>2026-05-25T10:02:14Z</time>
      </trkpt>
      <trkpt lat="44.81872" lon="1.79863">
        <ele>286</ele>
        <time>2026-05-25T10:02:15Z</time>
      </trkpt>
      <trkpt lat="44.81873" lon="1.79864">
        <ele>286.2</ele>
        <time>2026-05-25T10:02:16Z</time>
      </trkpt>
      <trkpt lat="44.81874" lon="1.79864">
        <ele>286</ele>
        <time>2026-05-25T10:02:17Z</time>
      </trkpt>
      <trkpt lat="44.81875" lon="1.79865">
        <ele>286</ele>
        <time>2026-05-25T10:02:18Z</time>
      </trkpt>
      <trkpt lat="44.81875" lon="1.79866">
        <ele>286</ele>
        <time>2026-05-25T10:02:19Z</time>
      </trkpt>
      <trkpt lat="44.81877" lon="1.79866">
        <ele>286.6</ele>
        <time>2026-05-25T10:02:21Z</time>
      </trkpt>
      <trkpt lat="44.81878" lon="1.79867">
        <ele>286.6</ele>
        <time>2026-05-25T10:02:22Z</time>
      </trkpt>
      <trkpt lat="44.8188" lon="1.79867">
        <ele>286.6</ele>
        <time>2026-05-25T10:02:24Z</time>
      </trkpt>
      <trkpt lat="44.81881" lon="1.79868">
        <ele>286.6</ele>
        <time>2026-05-25T10:02:25Z</time>
      </trkpt>
      <trkpt lat="44.81882" lon="1.79868">
        <ele>286.6</ele>
        <time>2026-05-25T10:02:26Z</time>
      </trkpt>
      <trkpt lat="44.81883" lon="1.79869">
        <ele>286.6</ele>
        <time>2026-05-25T10:02:27Z</time>
      </trkpt>
      <trkpt lat="44.81886" lon="1.79869">
        <ele>286.6</ele>
        <time>2026-05-25T10:02:30Z</time>
      </trkpt>
      <trkpt lat="44.81887" lon="1.7987">
        <ele>286.6</ele>
        <time>2026-05-25T10:02:31Z</time>
      </trkpt>
      <trkpt lat="44.81888" lon="1.7987">
        <ele>286.6</ele>
        <time>2026-05-25T10:02:32Z</time>
      </trkpt>
      <trkpt lat="44.81888" lon="1.79871">
        <ele>286.6</ele>
        <time>2026-05-25T10:02:33Z</time>
      </trkpt>
      <trkpt lat="44.8189" lon="1.79871">
        <ele>286.6</ele>
        <time>2026-05-25T10:02:35Z</time>
      </trkpt>
      <trkpt lat="44.81891" lon="1.79872">
        <ele>286.6</ele>
        <time>2026-05-25T10:02:36Z</time>
      </trkpt>
      <trkpt lat="44.81894" lon="1.79872">
        <ele>287</ele>
        <time>2026-05-25T10:02:38Z</time>
      </trkpt>
      <trkpt lat="44.81896" lon="1.79874">
        <ele>286.6</ele>
        <time>2026-05-25T10:02:41Z</time>
      </trkpt>
      <trkpt lat="44.81901" lon="1.79874">
        <ele>286.8</ele>
        <time>2026-05-25T10:02:46Z</time>
      </trkpt>
      <trkpt lat="44.81901" lon="1.79875">
        <ele>286.8</ele>
        <time>2026-05-25T10:02:47Z</time>
      </trkpt>
      <trkpt lat="44.81903" lon="1.79875">
        <ele>287.2</ele>
        <time>2026-05-25T10:02:49Z</time>
      </trkpt>
      <trkpt lat="44.81905" lon="1.79876">
        <ele>287.2</ele>
        <time>2026-05-25T10:02:50Z</time>
      </trkpt>
      <trkpt lat="44.81906" lon="1.79876">
        <ele>287.2</ele>
        <time>2026-05-25T10:02:51Z</time>
      </trkpt>
      <trkpt lat="44.81907" lon="1.79877">
        <ele>287</ele>
        <time>2026-05-25T10:02:52Z</time>
      </trkpt>
      <trkpt lat="44.81908" lon="1.79877">
        <ele>287</ele>
        <time>2026-05-25T10:02:53Z</time>
      </trkpt>
      <trkpt lat="44.81909" lon="1.79878">
        <ele>287</ele>
        <time>2026-05-25T10:02:54Z</time>
      </trkpt>
      <trkpt lat="44.8191" lon="1.79878">
        <ele>287</ele>
        <time>2026-05-25T10:02:55Z</time>
      </trkpt>
      <trkpt lat="44.81911" lon="1.79879">
        <ele>287</ele>
        <time>2026-05-25T10:02:56Z</time>
      </trkpt>
      <trkpt lat="44.81912" lon="1.79879">
        <ele>287</ele>
        <time>2026-05-25T10:02:57Z</time>
      </trkpt>
      <trkpt lat="44.81913" lon="1.7988">
        <ele>287</ele>
        <time>2026-05-25T10:02:58Z</time>
      </trkpt>
      <trkpt lat="44.81914" lon="1.7988">
        <ele>287</ele>
        <time>2026-05-25T10:02:59Z</time>
      </trkpt>
      <trkpt lat="44.81916" lon="1.79881">
        <ele>287</ele>
        <time>2026-05-25T10:03:00Z</time>
      </trkpt>
      <trkpt lat="44.81917" lon="1.79881">
        <ele>286.8</ele>
        <time>2026-05-25T10:03:01Z</time>
      </trkpt>
      <trkpt lat="44.81918" lon="1.79882">
        <ele>286.8</ele>
        <time>2026-05-25T10:03:02Z</time>
      </trkpt>
      <trkpt lat="44.81919" lon="1.79882">
        <ele>286.8</ele>
        <time>2026-05-25T10:03:03Z</time>
      </trkpt>
      <trkpt lat="44.81919" lon="1.79883">
        <ele>287</ele>
        <time>2026-05-25T10:03:04Z</time>
      </trkpt>
      <trkpt lat="44.8192" lon="1.79883">
        <ele>287.2</ele>
        <time>2026-05-25T10:03:05Z</time>
      </trkpt>
      <trkpt lat="44.81921" lon="1.79884">
        <ele>287.2</ele>
        <time>2026-05-25T10:03:06Z</time>
      </trkpt>
      <trkpt lat="44.81922" lon="1.79884">
        <ele>287.2</ele>
        <time>2026-05-25T10:03:07Z</time>
      </trkpt>
      <trkpt lat="44.81924" lon="1.79886">
        <ele>287.2</ele>
        <time>2026-05-25T10:03:09Z</time>
      </trkpt>
      <trkpt lat="44.81925" lon="1.79886">
        <ele>287.2</ele>
        <time>2026-05-25T10:03:10Z</time>
      </trkpt>
      <trkpt lat="44.81926" lon="1.79887">
        <ele>287.2</ele>
        <time>2026-05-25T10:03:11Z</time>
      </trkpt>
      <trkpt lat="44.81927" lon="1.79887">
        <ele>287.2</ele>
        <time>2026-05-25T10:03:12Z</time>
      </trkpt>
      <trkpt lat="44.8193" lon="1.7989">
        <ele>287</ele>
        <time>2026-05-25T10:03:16Z</time>
      </trkpt>
      <trkpt lat="44.81931" lon="1.7989">
        <ele>287.2</ele>
        <time>2026-05-25T10:03:17Z</time>
      </trkpt>
      <trkpt lat="44.81931" lon="1.79891">
        <ele>287.2</ele>
        <time>2026-05-25T10:03:18Z</time>
      </trkpt>
      <trkpt lat="44.81932" lon="1.79891">
        <ele>287.2</ele>
        <time>2026-05-25T10:03:19Z</time>
      </trkpt>
      <trkpt lat="44.81934" lon="1.79892">
        <ele>287.2</ele>
        <time>2026-05-25T10:03:20Z</time>
      </trkpt>
      <trkpt lat="44.81934" lon="1.79893">
        <ele>287.8</ele>
        <time>2026-05-25T10:03:21Z</time>
      </trkpt>
      <trkpt lat="44.81935" lon="1.79894">
        <ele>287.8</ele>
        <time>2026-05-25T10:03:22Z</time>
      </trkpt>
      <trkpt lat="44.8194" lon="1.79894">
        <ele>287.8</ele>
        <time>2026-05-25T10:03:26Z</time>
      </trkpt>
      <trkpt lat="44.81942" lon="1.79896">
        <ele>287.8</ele>
        <time>2026-05-25T10:03:28Z</time>
      </trkpt>
      <trkpt lat="44.81943" lon="1.79896">
        <ele>287.2</ele>
        <time>2026-05-25T10:03:29Z</time>
      </trkpt>
      <trkpt lat="44.81945" lon="1.79898">
        <ele>287.2</ele>
        <time>2026-05-25T10:03:31Z</time>
      </trkpt>
      <trkpt lat="44.81946" lon="1.79898">
        <ele>287.2</ele>
        <time>2026-05-25T10:03:32Z</time>
      </trkpt>
      <trkpt lat="44.81946" lon="1.79899">
        <ele>286.8</ele>
        <time>2026-05-25T10:03:33Z</time>
      </trkpt>
      <trkpt lat="44.81947" lon="1.79899">
        <ele>286.8</ele>
        <time>2026-05-25T10:03:34Z</time>
      </trkpt>
      <trkpt lat="44.81948" lon="1.79901">
        <ele>286.8</ele>
        <time>2026-05-25T10:03:35Z</time>
      </trkpt>
      <trkpt lat="44.81952" lon="1.79901">
        <ele>287.2</ele>
        <time>2026-05-25T10:03:39Z</time>
      </trkpt>
      <trkpt lat="44.81953" lon="1.79902">
        <ele>286.8</ele>
        <time>2026-05-25T10:03:40Z</time>
      </trkpt>
      <trkpt lat="44.81953" lon="1.79903">
        <ele>286.2</ele>
        <time>2026-05-25T10:03:41Z</time>
      </trkpt>
      <trkpt lat="44.81957" lon="1.79903">
        <ele>286.8</ele>
        <time>2026-05-25T10:03:44Z</time>
      </trkpt>
      <trkpt lat="44.81959" lon="1.79905">
        <ele>286.8</ele>
        <time>2026-05-25T10:03:46Z</time>
      </trkpt>
      <trkpt lat="44.8196" lon="1.79905">
        <ele>286.8</ele>
        <time>2026-05-25T10:03:47Z</time>
      </trkpt>
      <trkpt lat="44.81961" lon="1.79906">
        <ele>286.4</ele>
        <time>2026-05-25T10:03:48Z</time>
      </trkpt>
      <trkpt lat="44.81962" lon="1.79906">
        <ele>286.6</ele>
        <time>2026-05-25T10:03:49Z</time>
      </trkpt>
      <trkpt lat="44.81964" lon="1.79908">
        <ele>286.6</ele>
        <time>2026-05-25T10:03:51Z</time>
      </trkpt>
      <trkpt lat="44.81965" lon="1.79908">
        <ele>286.6</ele>
        <time>2026-05-25T10:03:52Z</time>
      </trkpt>
      <trkpt lat="44.81968" lon="1.79911">
        <ele>286.6</ele>
        <time>2026-05-25T10:03:56Z</time>
      </trkpt>
      <trkpt lat="44.81971" lon="1.79911">
        <ele>286.6</ele>
        <time>2026-05-25T10:03:59Z</time>
      </trkpt>
      <trkpt lat="44.81972" lon="1.79912">
        <ele>286.6</ele>
        <time>2026-05-25T10:04:00Z</time>
      </trkpt>
      <trkpt lat="44.81973" lon="1.79911">
        <ele>286.2</ele>
        <time>2026-05-25T10:04:01Z</time>
      </trkpt>
      <trkpt lat="44.81973" lon="1.79907">
        <ele>287</ele>
        <time>2026-05-25T10:04:07Z</time>
      </trkpt>
      <trkpt lat="44.81974" lon="1.79906">
        <ele>287.4</ele>
        <time>2026-05-25T10:04:09Z</time>
      </trkpt>
      <trkpt lat="44.81975" lon="1.79906">
        <ele>287.4</ele>
        <time>2026-05-25T10:04:11Z</time>
      </trkpt>
      <trkpt lat="44.81975" lon="1.79903">
        <ele>287.6</ele>
        <time>2026-05-25T10:04:13Z</time>
      </trkpt>
      <trkpt lat="44.81972" lon="1.79903">
        <ele>287.6</ele>
        <time>2026-05-25T10:04:15Z</time>
      </trkpt>
      <trkpt lat="44.81972" lon="1.79902">
        <ele>287.6</ele>
        <time>2026-05-25T10:04:16Z</time>
      </trkpt>
      <trkpt lat="44.8197" lon="1.79902">
        <ele>287.2</ele>
        <time>2026-05-25T10:04:19Z</time>
      </trkpt>
      <trkpt lat="44.8197" lon="1.79899">
        <ele>288</ele>
        <time>2026-05-25T10:04:21Z</time>
      </trkpt>
      <trkpt lat="44.81969" lon="1.79898">
        <ele>288</ele>
        <time>2026-05-25T10:04:23Z</time>
      </trkpt>
      <trkpt lat="44.81969" lon="1.79895">
        <ele>287.4</ele>
        <time>2026-05-25T10:04:25Z</time>
      </trkpt>
      <trkpt lat="44.81968" lon="1.79894">
        <ele>287.4</ele>
        <time>2026-05-25T10:04:27Z</time>
      </trkpt>
      <trkpt lat="44.81968" lon="1.79892">
        <ele>287.8</ele>
        <time>2026-05-25T10:04:28Z</time>
      </trkpt>
      <trkpt lat="44.81967" lon="1.79891">
        <ele>288</ele>
        <time>2026-05-25T10:04:29Z</time>
      </trkpt>
      <trkpt lat="44.81967" lon="1.79889">
        <ele>288</ele>
        <time>2026-05-25T10:04:31Z</time>
      </trkpt>
      <trkpt lat="44.81965" lon="1.79889">
        <ele>288</ele>
        <time>2026-05-25T10:04:33Z</time>
      </trkpt>
      <trkpt lat="44.81965" lon="1.7989">
        <ele>289</ele>
        <time>2026-05-25T10:04:44Z</time>
      </trkpt>
    </trkseg>
  </trk>
</gpx>